<?xml version='1.0' encoding='UTF-8'?>
<gpx xmlns="http://www.topografix.com/GPX/1/1" creator="www.balnam.be" version="1.1" xmlns:xsi="http://www.w3.org/2001/XMLSchema-instance" xsi:schemaLocation="http://www.topografix.com/GPX/1/1 http://www.topografix.com/GPX/1/1/gpx.xsd">
<trk>
<name>ncvcv10</name>
<cmt>v</cmt>
<desc>Couvin Chemin n°10 </desc>
<link href="https://chemins.be/couvin/chemin/10"/><trkseg>
<trkpt lat="50.027946" lon="4.497041"><time>2026-05-06T20:36:42Z</time></trkpt>
<trkpt lat="50.026733" lon="4.496465"><time>2026-05-06T20:46:42Z</time></trkpt>
<trkpt lat="50.025647" lon="4.494243"><time>2026-05-06T20:56:42Z</time></trkpt>
<trkpt lat="50.024956" lon="4.493585"><time>2026-05-06T21:06:42Z</time></trkpt>
<trkpt lat="50.024030" lon="4.493332"><time>2026-05-06T21:16:42Z</time></trkpt>
<trkpt lat="50.022492" lon="4.493928"><time>2026-05-06T21:26:42Z</time></trkpt>
<trkpt lat="50.022429" lon="4.494165"><time>2026-05-06T21:36:42Z</time></trkpt>
<trkpt lat="50.021927" lon="4.494765"><time>2026-05-06T21:46:42Z</time></trkpt>
<trkpt lat="50.021279" lon="4.494520"><time>2026-05-06T21:56:42Z</time></trkpt>
<trkpt lat="50.020374" lon="4.493628"><time>2026-05-06T22:06:42Z</time></trkpt>
<trkpt lat="50.019769" lon="4.493209"><time>2026-05-06T22:16:42Z</time></trkpt>
<trkpt lat="50.018547" lon="4.492327"><time>2026-05-06T22:26:42Z</time></trkpt>
<trkpt lat="50.016858" lon="4.493290"><time>2026-05-06T22:36:42Z</time></trkpt>
</trkseg></trk>
<trk>
<name>ncvcv10</name>
<cmt>d</cmt>
<desc>Couvin Chemin n°10 </desc>
<link href="https://chemins.be/couvin/chemin/10"/><trkseg>
<trkpt lat="50.016858" lon="4.493290"><time>2026-05-06T22:36:42Z</time></trkpt>
<trkpt lat="50.015586" lon="4.494984"><time>2026-05-06T22:46:42Z</time></trkpt>
<trkpt lat="50.012262" lon="4.497296"><time>2026-05-06T22:56:42Z</time></trkpt>
<trkpt lat="50.011239" lon="4.498684"><time>2026-05-06T23:06:42Z</time></trkpt>
<trkpt lat="50.008659" lon="4.498439"><time>2026-05-06T23:16:42Z</time></trkpt>
<trkpt lat="50.007626" lon="4.497600"><time>2026-05-06T23:26:42Z</time></trkpt>
<trkpt lat="50.005802" lon="4.497078"><time>2026-05-06T23:36:42Z</time></trkpt>
<trkpt lat="50.005496" lon="4.497078"><time>2026-05-06T23:46:42Z</time></trkpt>
</trkseg>
</trk>
<trk>
<name>ncvcv11</name>
<cmt>v</cmt>
<desc>Couvin Chemin n°11 </desc>
<link href="https://chemins.be/couvin/chemin/11"/><trkseg>
<trkpt lat="50.068015" lon="4.462578"><time>2026-05-06T20:36:42Z</time></trkpt>
<trkpt lat="50.068580" lon="4.463822"><time>2026-05-06T20:46:42Z</time></trkpt>
<trkpt lat="50.069010" lon="4.466184"><time>2026-05-06T20:56:42Z</time></trkpt>
<trkpt lat="50.069762" lon="4.469761"><time>2026-05-06T21:06:42Z</time></trkpt>
<trkpt lat="50.071114" lon="4.475142"><time>2026-05-06T21:16:42Z</time></trkpt>
<trkpt lat="50.072458" lon="4.480411"><time>2026-05-06T21:26:42Z</time></trkpt>
<trkpt lat="50.072654" lon="4.486549"><time>2026-05-06T21:36:42Z</time></trkpt>
<trkpt lat="50.072586" lon="4.487760"><time>2026-05-06T21:46:42Z</time></trkpt>
</trkseg>
</trk>
<trk>
<name>ncvcv13</name>
<cmt>v</cmt>
<desc>Couvin Chemin n°13 </desc>
<link href="https://chemins.be/couvin/chemin/13"/><trkseg>
<trkpt lat="50.016974" lon="4.592939"><time>2026-05-06T20:36:42Z</time></trkpt>
<trkpt lat="50.016685" lon="4.593384"><time>2026-05-06T20:46:42Z</time></trkpt>
<trkpt lat="50.016253" lon="4.593661"><time>2026-05-06T20:56:42Z</time></trkpt>
<trkpt lat="50.015947" lon="4.593924"><time>2026-05-06T21:06:42Z</time></trkpt>
<trkpt lat="50.015426" lon="4.593866"><time>2026-05-06T21:16:42Z</time></trkpt>
<trkpt lat="50.013527" lon="4.594597"><time>2026-05-06T21:26:42Z</time></trkpt>
<trkpt lat="50.012716" lon="4.595528"><time>2026-05-06T21:36:42Z</time></trkpt>
</trkseg></trk>
<trk>
<name>ncvcv13</name>
<cmt>s</cmt>
<desc>Couvin Chemin n°13 </desc>
<link href="https://chemins.be/couvin/chemin/13"/><trkseg>
<trkpt lat="50.012716" lon="4.595528"><time>2026-05-06T21:36:42Z</time></trkpt>
<trkpt lat="50.011734" lon="4.596653"><time>2026-05-06T21:46:42Z</time></trkpt>
<trkpt lat="50.011132" lon="4.596762"><time>2026-05-06T21:56:42Z</time></trkpt>
<trkpt lat="50.009381" lon="4.600060"><time>2026-05-06T22:06:42Z</time></trkpt>
<trkpt lat="50.009415" lon="4.600925"><time>2026-05-06T22:16:42Z</time></trkpt>
</trkseg>
</trk>
<trk>
<name>ncvcv14</name>
<cmt>s</cmt>
<desc>Couvin Chemin n°14 </desc>
<link href="https://chemins.be/couvin/chemin/14"/><trkseg>
<trkpt lat="49.995904" lon="4.543849"><time>2026-05-06T20:36:42Z</time></trkpt>
<trkpt lat="49.993158" lon="4.546637"><time>2026-05-06T20:46:42Z</time></trkpt>
<trkpt lat="49.990601" lon="4.552740"><time>2026-05-06T20:56:42Z</time></trkpt>
<trkpt lat="49.989611" lon="4.554837"><time>2026-05-06T21:06:42Z</time></trkpt>
<trkpt lat="49.989168" lon="4.556676"><time>2026-05-06T21:16:42Z</time></trkpt>
<trkpt lat="49.989254" lon="4.558796"><time>2026-05-06T21:26:42Z</time></trkpt>
<trkpt lat="49.989575" lon="4.560387"><time>2026-05-06T21:36:42Z</time></trkpt>
<trkpt lat="49.989743" lon="4.562340"><time>2026-05-06T21:46:42Z</time></trkpt>
<trkpt lat="49.989226" lon="4.564974"><time>2026-05-06T21:56:42Z</time></trkpt>
<trkpt lat="49.989124" lon="4.566703"><time>2026-05-06T22:06:42Z</time></trkpt>
<trkpt lat="49.988906" lon="4.567999"><time>2026-05-06T22:16:42Z</time></trkpt>
<trkpt lat="49.988329" lon="4.569028"><time>2026-05-06T22:26:42Z</time></trkpt>
</trkseg>
</trk>
<trk>
<name>ncvcv15</name>
<cmt>s</cmt>
<desc>Couvin Chemin n°15 </desc>
<link href="https://chemins.be/couvin/chemin/15"/><trkseg>
<trkpt lat="50.012482" lon="4.576873"><time>2026-05-06T20:36:42Z</time></trkpt>
<trkpt lat="50.010367" lon="4.578189"><time>2026-05-06T20:46:42Z</time></trkpt>
<trkpt lat="50.007176" lon="4.577408"><time>2026-05-06T20:56:42Z</time></trkpt>
<trkpt lat="50.006038" lon="4.575310"><time>2026-05-06T21:06:42Z</time></trkpt>
<trkpt lat="50.001859" lon="4.574804"><time>2026-05-06T21:16:42Z</time></trkpt>
<trkpt lat="50.000953" lon="4.573656"><time>2026-05-06T21:26:42Z</time></trkpt>
<trkpt lat="49.998178" lon="4.571720"><time>2026-05-06T21:36:42Z</time></trkpt>
<trkpt lat="49.992517" lon="4.569897"><time>2026-05-06T21:46:42Z</time></trkpt>
<trkpt lat="49.988870" lon="4.568054"><time>2026-05-06T21:56:42Z</time></trkpt>
<trkpt lat="49.988484" lon="4.567481"><time>2026-05-06T22:06:42Z</time></trkpt>
</trkseg>
</trk>
<trk>
<name>ncvcv16</name>
<cmt>r</cmt>
<desc>Couvin Chemin n°16 Rue de la Suédoise</desc>
<link href="https://chemins.be/couvin/chemin/16"/><trkseg>
<trkpt lat="50.047788" lon="4.504871"><time>2026-05-06T20:36:42Z</time></trkpt>
<trkpt lat="50.048369" lon="4.507777"><time>2026-05-06T20:46:42Z</time></trkpt>
<trkpt lat="50.048314" lon="4.508754"><time>2026-05-06T20:56:42Z</time></trkpt>
<trkpt lat="50.048600" lon="4.510528"><time>2026-05-06T21:06:42Z</time></trkpt>
<trkpt lat="50.049525" lon="4.511368"><time>2026-05-06T21:16:42Z</time></trkpt>
</trkseg>
</trk>
<trk>
<name>ncvcv17</name>
<cmt>r</cmt>
<desc>Couvin Chemin n°17 Rue du Parc-Saint-Roch</desc>
<link href="https://chemins.be/couvin/chemin/17"/><trkseg>
<trkpt lat="50.054082" lon="4.496943"><time>2026-05-06T20:36:42Z</time></trkpt>
<trkpt lat="50.054801" lon="4.496876"><time>2026-05-06T20:46:42Z</time></trkpt>
<trkpt lat="50.055548" lon="4.496766"><time>2026-05-06T20:56:42Z</time></trkpt>
<trkpt lat="50.056699" lon="4.496657"><time>2026-05-06T21:06:42Z</time></trkpt>
<trkpt lat="50.057328" lon="4.496687"><time>2026-05-06T21:16:42Z</time></trkpt>
</trkseg>
</trk>
<trk>
<name>ncvcv18</name>
<cmt>v</cmt>
<desc>Couvin Chemin n°18 Chant des Oiseaux / Rue Chant des Oiseaux</desc>
<link href="https://chemins.be/couvin/chemin/18"/><trkseg>
<trkpt lat="50.056783" lon="4.501224"><time>2026-05-06T20:36:42Z</time></trkpt>
<trkpt lat="50.057663" lon="4.502623"><time>2026-05-06T20:46:42Z</time></trkpt>
<trkpt lat="50.058678" lon="4.502947"><time>2026-05-06T20:56:42Z</time></trkpt>
<trkpt lat="50.060121" lon="4.503435"><time>2026-05-06T21:06:42Z</time></trkpt>
<trkpt lat="50.060879" lon="4.504392"><time>2026-05-06T21:16:42Z</time></trkpt>
<trkpt lat="50.061158" lon="4.504836"><time>2026-05-06T21:26:42Z</time></trkpt>
<trkpt lat="50.061308" lon="4.504870"><time>2026-05-06T21:36:42Z</time></trkpt>
</trkseg></trk>
<trk>
<name>ncvcv18</name>
<cmt>s</cmt>
<desc>Couvin Chemin n°18 Chant des Oiseaux / Rue Chant des Oiseaux</desc>
<link href="https://chemins.be/couvin/chemin/18"/><trkseg>
<trkpt lat="50.061308" lon="4.504870"><time>2026-05-06T21:36:42Z</time></trkpt>
<trkpt lat="50.061580" lon="4.505078"><time>2026-05-06T21:46:42Z</time></trkpt>
<trkpt lat="50.062047" lon="4.504968"><time>2026-05-06T21:56:42Z</time></trkpt>
<trkpt lat="50.062928" lon="4.505696"><time>2026-05-06T22:06:42Z</time></trkpt>
</trkseg>
</trk>
<trk>
<name>ncvcv2</name>
<cmt>r</cmt>
<desc>Couvin Chemin n°2 Rue des Girondelles</desc>
<link href="https://chemins.be/couvin/chemin/2"/><trkseg>
<trkpt lat="50.053180" lon="4.499664"><time>2026-05-06T20:36:42Z</time></trkpt>
<trkpt lat="50.052981" lon="4.500767"><time>2026-05-06T20:46:42Z</time></trkpt>
<trkpt lat="50.053185" lon="4.503336"><time>2026-05-06T20:56:42Z</time></trkpt>
<trkpt lat="50.053129" lon="4.504537"><time>2026-05-06T21:06:42Z</time></trkpt>
<trkpt lat="50.053432" lon="4.506591"><time>2026-05-06T21:16:42Z</time></trkpt>
<trkpt lat="50.053598" lon="4.507225"><time>2026-05-06T21:26:42Z</time></trkpt>
</trkseg></trk>
<trk>
<name>ncvcv2</name>
<cmt>s</cmt>
<desc>Couvin Chemin n°2 Rue des Girondelles</desc>
<link href="https://chemins.be/couvin/chemin/2"/><trkseg>
<trkpt lat="50.053598" lon="4.507225"><time>2026-05-06T21:26:42Z</time></trkpt>
<trkpt lat="50.053941" lon="4.508539"><time>2026-05-06T21:36:42Z</time></trkpt>
</trkseg>
</trk>
<trk>
<name>ncvcv24</name>
<cmt>r</cmt>
<desc>Couvin Chemin n°24 Rue des Archers</desc>
<link href="https://chemins.be/couvin/chemin/24"/><trkseg>
<trkpt lat="50.050706" lon="4.501263"><time>2026-05-06T20:36:42Z</time></trkpt>
<trkpt lat="50.050696" lon="4.502045"><time>2026-05-06T20:46:42Z</time></trkpt>
<trkpt lat="50.050677" lon="4.502673"><time>2026-05-06T20:56:42Z</time></trkpt>
<trkpt lat="50.050820" lon="4.503120"><time>2026-05-06T21:06:42Z</time></trkpt>
</trkseg>
</trk>
<trk>
<name>ncvcv29</name>
<cmt>r</cmt>
<desc>Couvin Chemin n°29 Ruelle Cracsot</desc>
<link href="https://chemins.be/couvin/chemin/29"/><trkseg>
<trkpt lat="50.049464" lon="4.494222"><time>2026-05-06T20:36:42Z</time></trkpt>
<trkpt lat="50.049689" lon="4.493930"><time>2026-05-06T20:46:42Z</time></trkpt>
<trkpt lat="50.050102" lon="4.493903"><time>2026-05-06T20:56:42Z</time></trkpt>
<trkpt lat="50.051164" lon="4.493110"><time>2026-05-06T21:06:42Z</time></trkpt>
<trkpt lat="50.051416" lon="4.492761"><time>2026-05-06T21:16:42Z</time></trkpt>
</trkseg>
</trk>
<trk>
<name>ncvcv3</name>
<cmt>r</cmt>
<desc>Couvin Chemin n°3 Rue des Calvaires / Rue du Hestreux</desc>
<link href="https://chemins.be/couvin/chemin/3"/><trkseg>
<trkpt lat="50.050747" lon="4.499572"><time>2026-05-06T20:36:42Z</time></trkpt>
<trkpt lat="50.050267" lon="4.501572"><time>2026-05-06T20:46:42Z</time></trkpt>
<trkpt lat="50.049207" lon="4.502782"><time>2026-05-06T20:56:42Z</time></trkpt>
<trkpt lat="50.047707" lon="4.504832"><time>2026-05-06T21:06:42Z</time></trkpt>
<trkpt lat="50.047287" lon="4.506853"><time>2026-05-06T21:16:42Z</time></trkpt>
<trkpt lat="50.046627" lon="4.507943"><time>2026-05-06T21:26:42Z</time></trkpt>
<trkpt lat="50.046687" lon="4.510233"><time>2026-05-06T21:36:42Z</time></trkpt>
<trkpt lat="50.046236" lon="4.512754"><time>2026-05-06T21:46:42Z</time></trkpt>
<trkpt lat="50.046050" lon="4.512915"><time>2026-05-06T21:56:42Z</time></trkpt>
<trkpt lat="50.045127" lon="4.512754"><time>2026-05-06T22:06:42Z</time></trkpt>
<trkpt lat="50.044357" lon="4.513333"><time>2026-05-06T22:16:42Z</time></trkpt>
<trkpt lat="50.044357" lon="4.514753"><time>2026-05-06T22:26:42Z</time></trkpt>
<trkpt lat="50.044677" lon="4.517013"><time>2026-05-06T22:36:42Z</time></trkpt>
</trkseg>
</trk>
<trk>
<name>ncvcv30</name>
<cmt>v</cmt>
<desc>Couvin Chemin n°30 </desc>
<link href="https://chemins.be/couvin/chemin/30"/><trkseg>
<trkpt lat="50.046977" lon="4.490683"><time>2026-05-06T20:36:42Z</time></trkpt>
<trkpt lat="50.046168" lon="4.490807"><time>2026-05-06T20:46:42Z</time></trkpt>
<trkpt lat="50.045394" lon="4.491685"><time>2026-05-06T20:56:42Z</time></trkpt>
<trkpt lat="50.045106" lon="4.491698"><time>2026-05-06T21:06:42Z</time></trkpt>
<trkpt lat="50.044334" lon="4.490355"><time>2026-05-06T21:16:42Z</time></trkpt>
<trkpt lat="50.043408" lon="4.490576"><time>2026-05-06T21:26:42Z</time></trkpt>
<trkpt lat="50.042248" lon="4.490294"><time>2026-05-06T21:36:42Z</time></trkpt>
<trkpt lat="50.041332" lon="4.489775"><time>2026-05-06T21:46:42Z</time></trkpt>
<trkpt lat="50.040712" lon="4.489383"><time>2026-05-06T21:56:42Z</time></trkpt>
</trkseg>
</trk>
<trk>
<name>ncvcv31</name>
<cmt>q</cmt>
<desc>Couvin Chemin n°31 </desc>
<link href="https://chemins.be/couvin/chemin/31"/><trkseg>
<trkpt lat="50.052396" lon="4.490650"><time>2026-05-06T20:36:42Z</time></trkpt>
<trkpt lat="50.051843" lon="4.490629"><time>2026-05-06T20:46:42Z</time></trkpt>
<trkpt lat="50.051197" lon="4.490328"><time>2026-05-06T20:56:42Z</time></trkpt>
<trkpt lat="50.050977" lon="4.490532"><time>2026-05-06T21:06:42Z</time></trkpt>
</trkseg>
</trk>
<trk>
<name>ncvcv32</name>
<cmt>v</cmt>
<desc>Couvin Chemin n°32 </desc>
<link href="https://chemins.be/couvin/chemin/32"/><trkseg>
<trkpt lat="50.051838" lon="4.486609"><time>2026-05-06T20:36:42Z</time></trkpt>
<trkpt lat="50.051662" lon="4.486077"><time>2026-05-06T20:46:42Z</time></trkpt>
<trkpt lat="50.051134" lon="4.481134"><time>2026-05-06T20:56:42Z</time></trkpt>
<trkpt lat="50.050551" lon="4.479353"><time>2026-05-06T21:06:42Z</time></trkpt>
</trkseg>
</trk>
<trk>
<name>ncvcv33</name>
<cmt>v</cmt>
<desc>Couvin Chemin n°33 </desc>
<link href="https://chemins.be/couvin/chemin/33"/><trkseg>
<trkpt lat="50.046010" lon="4.486702"><time>2026-05-06T20:36:42Z</time></trkpt>
<trkpt lat="50.046379" lon="4.486437"><time>2026-05-06T20:46:42Z</time></trkpt>
<trkpt lat="50.046784" lon="4.486089"><time>2026-05-06T20:56:42Z</time></trkpt>
<trkpt lat="50.047585" lon="4.485631"><time>2026-05-06T21:06:42Z</time></trkpt>
</trkseg>
</trk>
<trk>
<name>ncvcv34</name>
<cmt>r</cmt>
<desc>Couvin Chemin n°34 </desc>
<link href="https://chemins.be/couvin/chemin/34"/><trkseg>
<trkpt lat="50.043119" lon="4.499762"><time>2026-05-06T20:36:42Z</time></trkpt>
<trkpt lat="50.042985" lon="4.499091"><time>2026-05-06T20:46:42Z</time></trkpt>
<trkpt lat="50.042662" lon="4.498588"><time>2026-05-06T20:56:42Z</time></trkpt>
</trkseg></trk>
<trk>
<name>ncvcv34</name>
<cmt>v</cmt>
<desc>Couvin Chemin n°34 </desc>
<link href="https://chemins.be/couvin/chemin/34"/><trkseg>
<trkpt lat="50.042662" lon="4.498588"><time>2026-05-06T20:56:42Z</time></trkpt>
<trkpt lat="50.042347" lon="4.498098"><time>2026-05-06T21:06:42Z</time></trkpt>
<trkpt lat="50.042154" lon="4.497832"><time>2026-05-06T21:16:42Z</time></trkpt>
<trkpt lat="50.041914" lon="4.497591"><time>2026-05-06T21:26:42Z</time></trkpt>
<trkpt lat="50.041914" lon="4.497334"><time>2026-05-06T21:36:42Z</time></trkpt>
<trkpt lat="50.041658" lon="4.496324"><time>2026-05-06T21:46:42Z</time></trkpt>
<trkpt lat="50.041596" lon="4.495207"><time>2026-05-06T21:56:42Z</time></trkpt>
<trkpt lat="50.041776" lon="4.494509"><time>2026-05-06T22:06:42Z</time></trkpt>
<trkpt lat="50.041921" lon="4.494077"><time>2026-05-06T22:16:42Z</time></trkpt>
<trkpt lat="50.041957" lon="4.493588"><time>2026-05-06T22:26:42Z</time></trkpt>
<trkpt lat="50.041566" lon="4.489944"><time>2026-05-06T22:36:42Z</time></trkpt>
<trkpt lat="50.041314" lon="4.489775"><time>2026-05-06T22:46:42Z</time></trkpt>
<trkpt lat="50.041207" lon="4.488784"><time>2026-05-06T22:56:42Z</time></trkpt>
<trkpt lat="50.040446" lon="4.485515"><time>2026-05-06T23:06:42Z</time></trkpt>
<trkpt lat="50.039365" lon="4.484151"><time>2026-05-06T23:16:42Z</time></trkpt>
<trkpt lat="50.038696" lon="4.482635"><time>2026-05-06T23:26:42Z</time></trkpt>
</trkseg>
</trk>
<trk>
<name>ncvcv36</name>
<cmt>r</cmt>
<desc>Couvin Chemin n°36 Rue de la Croix / Rue Charlemont</desc>
<link href="https://chemins.be/couvin/chemin/36"/><trkseg>
<trkpt lat="50.049626" lon="4.501902"><time>2026-05-06T20:36:42Z</time></trkpt>
<trkpt lat="50.049788" lon="4.501386"><time>2026-05-06T20:46:42Z</time></trkpt>
<trkpt lat="50.049825" lon="4.501121"><time>2026-05-06T20:56:42Z</time></trkpt>
<trkpt lat="50.049825" lon="4.501037"><time>2026-05-06T21:06:42Z</time></trkpt>
<trkpt lat="50.049933" lon="4.500758"><time>2026-05-06T21:16:42Z</time></trkpt>
<trkpt lat="50.049556" lon="4.499724"><time>2026-05-06T21:26:42Z</time></trkpt>
<trkpt lat="50.049081" lon="4.498843"><time>2026-05-06T21:36:42Z</time></trkpt>
</trkseg>
</trk>
<trk>
<name>ncvcv4</name>
<cmt>r</cmt>
<desc>Couvin Chemin n°4 Tienne de Boussu</desc>
<link href="https://chemins.be/couvin/chemin/4"/><trkseg>
<trkpt lat="50.055805" lon="4.491600"><time>2026-05-06T20:36:42Z</time></trkpt>
<trkpt lat="50.056031" lon="4.490260"><time>2026-05-06T20:46:42Z</time></trkpt>
<trkpt lat="50.056897" lon="4.487706"><time>2026-05-06T20:56:42Z</time></trkpt>
<trkpt lat="50.057517" lon="4.487596"><time>2026-05-06T21:06:42Z</time></trkpt>
<trkpt lat="50.058390" lon="4.487165"><time>2026-05-06T21:16:42Z</time></trkpt>
<trkpt lat="50.059407" lon="4.485785"><time>2026-05-06T21:26:42Z</time></trkpt>
<trkpt lat="50.060973" lon="4.484728"><time>2026-05-06T21:36:42Z</time></trkpt>
<trkpt lat="50.063456" lon="4.483184"><time>2026-05-06T21:46:42Z</time></trkpt>
<trkpt lat="50.064402" lon="4.482325"><time>2026-05-06T21:56:42Z</time></trkpt>
<trkpt lat="50.067486" lon="4.480721"><time>2026-05-06T22:06:42Z</time></trkpt>
<trkpt lat="50.071069" lon="4.475212"><time>2026-05-06T22:16:42Z</time></trkpt>
</trkseg>
</trk>
<trk>
<name>ncvcv41</name>
<cmt>r</cmt>
<desc>Couvin Chemin n°41 Rue de la Platinerie</desc>
<link href="https://chemins.be/couvin/chemin/41"/><trkseg>
<trkpt lat="50.035993" lon="4.502239"><time>2026-05-06T20:36:42Z</time></trkpt>
<trkpt lat="50.035835" lon="4.502894"><time>2026-05-06T20:46:42Z</time></trkpt>
</trkseg></trk>
<trk>
<name>ncvcv41</name>
<cmt>v</cmt>
<desc>Couvin Chemin n°41 Rue de la Platinerie</desc>
<link href="https://chemins.be/couvin/chemin/41"/><trkseg>
<trkpt lat="50.035835" lon="4.502894"><time>2026-05-06T20:46:42Z</time></trkpt>
<trkpt lat="50.035647" lon="4.503733"><time>2026-05-06T20:56:42Z</time></trkpt>
<trkpt lat="50.035747" lon="4.505463"><time>2026-05-06T21:06:42Z</time></trkpt>
</trkseg></trk>
<trk>
<name>ncvcv41</name>
<cmt>s</cmt>
<desc>Couvin Chemin n°41 Rue de la Platinerie</desc>
<link href="https://chemins.be/couvin/chemin/41"/><trkseg>
<trkpt lat="50.035747" lon="4.505463"><time>2026-05-06T21:06:42Z</time></trkpt>
<trkpt lat="50.035857" lon="4.507333"><time>2026-05-06T21:16:42Z</time></trkpt>
<trkpt lat="50.035927" lon="4.508153"><time>2026-05-06T21:26:42Z</time></trkpt>
<trkpt lat="50.035767" lon="4.508863"><time>2026-05-06T21:36:42Z</time></trkpt>
</trkseg></trk>
<trk>
<name>ncvcv41</name>
<cmt>v</cmt>
<desc>Couvin Chemin n°41 Rue de la Platinerie</desc>
<link href="https://chemins.be/couvin/chemin/41"/><trkseg>
<trkpt lat="50.035767" lon="4.508863"><time>2026-05-06T21:36:42Z</time></trkpt>
<trkpt lat="50.035337" lon="4.510773"><time>2026-05-06T21:46:42Z</time></trkpt>
</trkseg></trk>
<trk>
<name>ncvcv41</name>
<cmt>r</cmt>
<desc>Couvin Chemin n°41 Rue de la Platinerie</desc>
<link href="https://chemins.be/couvin/chemin/41"/><trkseg>
<trkpt lat="50.035337" lon="4.510773"><time>2026-05-06T21:46:42Z</time></trkpt>
<trkpt lat="50.035337" lon="4.510763"><time>2026-05-06T21:56:42Z</time></trkpt>
<trkpt lat="50.035937" lon="4.513453"><time>2026-05-06T22:06:42Z</time></trkpt>
<trkpt lat="50.036227" lon="4.515993"><time>2026-05-06T22:16:42Z</time></trkpt>
<trkpt lat="50.036217" lon="4.517613"><time>2026-05-06T22:26:42Z</time></trkpt>
</trkseg></trk>
<trk>
<name>ncvcv41</name>
<cmt>v</cmt>
<desc>Couvin Chemin n°41 Rue de la Platinerie</desc>
<link href="https://chemins.be/couvin/chemin/41"/><trkseg>
<trkpt lat="50.036217" lon="4.517613"><time>2026-05-06T22:26:42Z</time></trkpt>
<trkpt lat="50.036217" lon="4.517623"><time>2026-05-06T22:36:42Z</time></trkpt>
<trkpt lat="50.036287" lon="4.518123"><time>2026-05-06T22:46:42Z</time></trkpt>
<trkpt lat="50.036117" lon="4.518713"><time>2026-05-06T22:56:42Z</time></trkpt>
</trkseg>
</trk>
<trk>
<name>ncvcv42</name>
<cmt>v</cmt>
<desc>Couvin Chemin n°42 </desc>
<link href="https://chemins.be/couvin/chemin/42"/><trkseg>
<trkpt lat="50.030348" lon="4.487082"><time>2026-05-06T20:36:42Z</time></trkpt>
<trkpt lat="50.030600" lon="4.486831"><time>2026-05-06T20:46:42Z</time></trkpt>
<trkpt lat="50.033425" lon="4.485428"><time>2026-05-06T20:56:42Z</time></trkpt>
<trkpt lat="50.034100" lon="4.484858"><time>2026-05-06T21:06:42Z</time></trkpt>
<trkpt lat="50.033948" lon="4.483336"><time>2026-05-06T21:16:42Z</time></trkpt>
<trkpt lat="50.034652" lon="4.478530"><time>2026-05-06T21:26:42Z</time></trkpt>
<trkpt lat="50.034635" lon="4.477913"><time>2026-05-06T21:36:42Z</time></trkpt>
</trkseg>
</trk>
<trk>
<name>ncvcv43</name>
<cmt>r</cmt>
<desc>Couvin Chemin n°43 Fonds de l'Eau</desc>
<link href="https://chemins.be/couvin/chemin/43"/><trkseg>
<trkpt lat="50.033747" lon="4.495605"><time>2026-05-06T20:36:42Z</time></trkpt>
<trkpt lat="50.033505" lon="4.494836"><time>2026-05-06T20:46:42Z</time></trkpt>
<trkpt lat="50.031781" lon="4.492431"><time>2026-05-06T20:56:42Z</time></trkpt>
<trkpt lat="50.030841" lon="4.489051"><time>2026-05-06T21:06:42Z</time></trkpt>
<trkpt lat="50.030320" lon="4.487515"><time>2026-05-06T21:16:42Z</time></trkpt>
<trkpt lat="50.030337" lon="4.486978"><time>2026-05-06T21:26:42Z</time></trkpt>
</trkseg></trk>
<trk>
<name>ncvcv43</name>
<cmt>v</cmt>
<desc>Couvin Chemin n°43 Fonds de l'Eau</desc>
<link href="https://chemins.be/couvin/chemin/43"/><trkseg>
<trkpt lat="50.030337" lon="4.486978"><time>2026-05-06T21:26:42Z</time></trkpt>
<trkpt lat="50.030309" lon="4.486330"><time>2026-05-06T21:36:42Z</time></trkpt>
<trkpt lat="50.030188" lon="4.485974"><time>2026-05-06T21:46:42Z</time></trkpt>
<trkpt lat="50.030229" lon="4.485579"><time>2026-05-06T21:56:42Z</time></trkpt>
<trkpt lat="50.030022" lon="4.485111"><time>2026-05-06T22:06:42Z</time></trkpt>
</trkseg></trk>
<trk>
<name>ncvcv43</name>
<cmt>r</cmt>
<desc>Couvin Chemin n°43 Fonds de l'Eau</desc>
<link href="https://chemins.be/couvin/chemin/43"/><trkseg>
<trkpt lat="50.030022" lon="4.485111"><time>2026-05-06T22:06:42Z</time></trkpt>
<trkpt lat="50.029919" lon="4.484359"><time>2026-05-06T22:16:42Z</time></trkpt>
<trkpt lat="50.029822" lon="4.483228"><time>2026-05-06T22:26:42Z</time></trkpt>
<trkpt lat="50.029257" lon="4.481845"><time>2026-05-06T22:36:42Z</time></trkpt>
<trkpt lat="50.028349" lon="4.480481"><time>2026-05-06T22:46:42Z</time></trkpt>
<trkpt lat="50.028435" lon="4.480112"><time>2026-05-06T22:56:42Z</time></trkpt>
<trkpt lat="50.028272" lon="4.479378"><time>2026-05-06T23:06:42Z</time></trkpt>
<trkpt lat="50.027387" lon="4.478855"><time>2026-05-06T23:16:42Z</time></trkpt>
<trkpt lat="50.027125" lon="4.478352"><time>2026-05-06T23:26:42Z</time></trkpt>
</trkseg>
</trk>
<trk>
<name>ncvcv44</name>
<cmt>r</cmt>
<desc>Couvin Chemin n°44 Fonds de l'Eau</desc>
<link href="https://chemins.be/couvin/chemin/44"/><trkseg>
<trkpt lat="50.031826" lon="4.492403"><time>2026-05-06T20:36:42Z</time></trkpt>
<trkpt lat="50.032363" lon="4.491442"><time>2026-05-06T20:46:42Z</time></trkpt>
</trkseg>
</trk>
<trk>
<name>ncvcv45</name>
<cmt>d</cmt>
<desc>Couvin Chemin n°45 </desc>
<link href="https://chemins.be/couvin/chemin/45"/><trkseg>
<trkpt lat="50.027370" lon="4.480850"><time>2026-05-06T20:36:42Z</time></trkpt>
<trkpt lat="50.027191" lon="4.480068"><time>2026-05-06T20:46:42Z</time></trkpt>
</trkseg></trk>
<trk>
<name>ncvcv45</name>
<cmt>s</cmt>
<desc>Couvin Chemin n°45 </desc>
<link href="https://chemins.be/couvin/chemin/45"/><trkseg>
<trkpt lat="50.027191" lon="4.480068"><time>2026-05-06T20:46:42Z</time></trkpt>
<trkpt lat="50.026903" lon="4.479425"><time>2026-05-06T20:56:42Z</time></trkpt>
</trkseg>
</trk>
<trk>
<name>ncvcv46</name>
<cmt>v</cmt>
<desc>Couvin Chemin n°46 </desc>
<link href="https://chemins.be/couvin/chemin/46"/><trkseg>
<trkpt lat="50.027498" lon="4.478045"><time>2026-05-06T20:36:42Z</time></trkpt>
<trkpt lat="50.027219" lon="4.478282"><time>2026-05-06T20:46:42Z</time></trkpt>
</trkseg></trk>
<trk>
<name>ncvcv46</name>
<cmt>s</cmt>
<desc>Couvin Chemin n°46 </desc>
<link href="https://chemins.be/couvin/chemin/46"/><trkseg>
<trkpt lat="50.027219" lon="4.478282"><time>2026-05-06T20:46:42Z</time></trkpt>
<trkpt lat="50.026994" lon="4.479118"><time>2026-05-06T20:56:42Z</time></trkpt>
<trkpt lat="50.026868" lon="4.479369"><time>2026-05-06T21:06:42Z</time></trkpt>
<trkpt lat="50.026445" lon="4.479773"><time>2026-05-06T21:16:42Z</time></trkpt>
</trkseg></trk>
<trk>
<name>ncvcv46</name>
<cmt>v</cmt>
<desc>Couvin Chemin n°46 </desc>
<link href="https://chemins.be/couvin/chemin/46"/><trkseg>
<trkpt lat="50.026445" lon="4.479773"><time>2026-05-06T21:16:42Z</time></trkpt>
<trkpt lat="50.025698" lon="4.479841"><time>2026-05-06T21:26:42Z</time></trkpt>
<trkpt lat="50.024581" lon="4.479787"><time>2026-05-06T21:36:42Z</time></trkpt>
</trkseg>
</trk>
<trk>
<name>ncvcv47</name>
<cmt>d</cmt>
<desc>Couvin Chemin n°47 </desc>
<link href="https://chemins.be/couvin/chemin/47"/><trkseg>
<trkpt lat="50.028287" lon="4.480405"><time>2026-05-06T20:36:42Z</time></trkpt>
<trkpt lat="50.027703" lon="4.480097"><time>2026-05-06T20:46:42Z</time></trkpt>
<trkpt lat="50.027235" lon="4.480054"><time>2026-05-06T20:56:42Z</time></trkpt>
<trkpt lat="50.026471" lon="4.479829"><time>2026-05-06T21:06:42Z</time></trkpt>
</trkseg>
</trk>
<trk>
<name>ncvcv48</name>
<cmt>r</cmt>
<desc>Couvin Chemin n°48 Fonds de l'Eau</desc>
<link href="https://chemins.be/couvin/chemin/48"/><trkseg>
<trkpt lat="50.028322" lon="4.480497"><time>2026-05-06T20:36:42Z</time></trkpt>
<trkpt lat="50.027385" lon="4.480815"><time>2026-05-06T20:46:42Z</time></trkpt>
</trkseg></trk>
<trk>
<name>ncvcv48</name>
<cmt>q</cmt>
<desc>Couvin Chemin n°48 Fonds de l'Eau</desc>
<link href="https://chemins.be/couvin/chemin/48"/><trkseg>
<trkpt lat="50.027385" lon="4.480815"><time>2026-05-06T20:46:42Z</time></trkpt>
<trkpt lat="50.027050" lon="4.480474"><time>2026-05-06T20:56:42Z</time></trkpt>
</trkseg></trk>
<trk>
<name>ncvcv48</name>
<cmt>d</cmt>
<desc>Couvin Chemin n°48 Fonds de l'Eau</desc>
<link href="https://chemins.be/couvin/chemin/48"/><trkseg>
<trkpt lat="50.027050" lon="4.480474"><time>2026-05-06T20:56:42Z</time></trkpt>
<trkpt lat="50.026444" lon="4.479857"><time>2026-05-06T21:06:42Z</time></trkpt>
</trkseg>
</trk>
<trk>
<name>ncvcv5</name>
<cmt>v</cmt>
<desc>Couvin Chemin n°5 Rue de la Justice</desc>
<link href="https://chemins.be/couvin/chemin/5"/><trkseg>
<trkpt lat="50.063905" lon="4.463673"><time>2026-05-06T20:36:42Z</time></trkpt>
<trkpt lat="50.063608" lon="4.464064"><time>2026-05-06T20:46:42Z</time></trkpt>
<trkpt lat="50.064092" lon="4.465978"><time>2026-05-06T20:56:42Z</time></trkpt>
<trkpt lat="50.064136" lon="4.467040"><time>2026-05-06T21:06:42Z</time></trkpt>
<trkpt lat="50.063775" lon="4.467590"><time>2026-05-06T21:16:42Z</time></trkpt>
<trkpt lat="50.062670" lon="4.468070"><time>2026-05-06T21:26:42Z</time></trkpt>
<trkpt lat="50.061023" lon="4.469868"><time>2026-05-06T21:36:42Z</time></trkpt>
<trkpt lat="50.059628" lon="4.473441"><time>2026-05-06T21:46:42Z</time></trkpt>
</trkseg></trk>
<trk>
<name>ncvcv5</name>
<cmt>r</cmt>
<desc>Couvin Chemin n°5 Rue de la Justice</desc>
<link href="https://chemins.be/couvin/chemin/5"/><trkseg>
<trkpt lat="50.059628" lon="4.473441"><time>2026-05-06T21:46:42Z</time></trkpt>
<trkpt lat="50.058707" lon="4.475799"><time>2026-05-06T21:56:42Z</time></trkpt>
<trkpt lat="50.058022" lon="4.477403"><time>2026-05-06T22:06:42Z</time></trkpt>
</trkseg>
</trk>
<trk>
<name>ncvcv50</name>
<cmt>v</cmt>
<desc>Couvin Chemin n°50 </desc>
<link href="https://chemins.be/couvin/chemin/50"/><trkseg>
<trkpt lat="50.049535" lon="4.494641"><time>2026-05-06T20:36:42Z</time></trkpt>
<trkpt lat="50.049220" lon="4.495087"><time>2026-05-06T20:46:42Z</time></trkpt>
<trkpt lat="50.048824" lon="4.495379"><time>2026-05-06T20:56:42Z</time></trkpt>
<trkpt lat="50.048635" lon="4.495700"><time>2026-05-06T21:06:42Z</time></trkpt>
</trkseg>
</trk>
<trk>
<name>ncvcv51</name>
<cmt>v</cmt>
<desc>Couvin Chemin n°51 </desc>
<link href="https://chemins.be/couvin/chemin/51"/><trkseg>
<trkpt lat="50.022510" lon="4.494263"><time>2026-05-06T20:36:42Z</time></trkpt>
<trkpt lat="50.022805" lon="4.495268"><time>2026-05-06T20:46:42Z</time></trkpt>
<trkpt lat="50.022814" lon="4.495854"><time>2026-05-06T20:56:42Z</time></trkpt>
<trkpt lat="50.022120" lon="4.497095"><time>2026-05-06T21:06:42Z</time></trkpt>
<trkpt lat="50.020842" lon="4.498347"><time>2026-05-06T21:16:42Z</time></trkpt>
<trkpt lat="50.019042" lon="4.500240"><time>2026-05-06T21:26:42Z</time></trkpt>
<trkpt lat="50.014524" lon="4.504329"><time>2026-05-06T21:36:42Z</time></trkpt>
<trkpt lat="50.011267" lon="4.506078"><time>2026-05-06T21:46:42Z</time></trkpt>
<trkpt lat="50.009989" lon="4.506702"><time>2026-05-06T21:56:42Z</time></trkpt>
<trkpt lat="50.008971" lon="4.508345"><time>2026-05-06T22:06:42Z</time></trkpt>
<trkpt lat="50.006524" lon="4.509928"><time>2026-05-06T22:16:42Z</time></trkpt>
<trkpt lat="50.005158" lon="4.509450"><time>2026-05-06T22:26:42Z</time></trkpt>
<trkpt lat="50.003539" lon="4.510087"><time>2026-05-06T22:36:42Z</time></trkpt>
</trkseg>
</trk>
<trk>
<name>ncvcv52</name>
<cmt>r</cmt>
<desc>Couvin Chemin n°52 Rue de Pernelle</desc>
<link href="https://chemins.be/couvin/chemin/52"/><trkseg>
<trkpt lat="50.027973" lon="4.497138"><time>2026-05-06T20:36:42Z</time></trkpt>
<trkpt lat="50.027342" lon="4.498518"><time>2026-05-06T20:46:42Z</time></trkpt>
<trkpt lat="50.026604" lon="4.499284"><time>2026-05-06T20:56:42Z</time></trkpt>
<trkpt lat="50.026016" lon="4.501990"><time>2026-05-06T21:06:42Z</time></trkpt>
<trkpt lat="50.025158" lon="4.505225"><time>2026-05-06T21:16:42Z</time></trkpt>
<trkpt lat="50.022907" lon="4.508554"><time>2026-05-06T21:26:42Z</time></trkpt>
<trkpt lat="50.020198" lon="4.510764"><time>2026-05-06T21:36:42Z</time></trkpt>
</trkseg></trk>
<trk>
<name>ncvcv52</name>
<cmt>d</cmt>
<desc>Couvin Chemin n°52 Rue de Pernelle</desc>
<link href="https://chemins.be/couvin/chemin/52"/><trkseg>
<trkpt lat="50.020198" lon="4.510764"><time>2026-05-06T21:36:42Z</time></trkpt>
<trkpt lat="50.019674" lon="4.512368"><time>2026-05-06T21:46:42Z</time></trkpt>
<trkpt lat="50.019556" lon="4.513735"><time>2026-05-06T21:56:42Z</time></trkpt>
<trkpt lat="50.018573" lon="4.515699"><time>2026-05-06T22:06:42Z</time></trkpt>
<trkpt lat="50.017754" lon="4.516380"><time>2026-05-06T22:16:42Z</time></trkpt>
<trkpt lat="50.016542" lon="4.515149"><time>2026-05-06T22:26:42Z</time></trkpt>
</trkseg></trk>
<trk>
<name>ncvcv52</name>
<cmt>r</cmt>
<desc>Couvin Chemin n°52 Rue de Pernelle</desc>
<link href="https://chemins.be/couvin/chemin/52"/><trkseg>
<trkpt lat="50.016542" lon="4.515149"><time>2026-05-06T22:26:42Z</time></trkpt>
<trkpt lat="50.015103" lon="4.515465"><time>2026-05-06T22:36:42Z</time></trkpt>
<trkpt lat="50.014102" lon="4.517820"><time>2026-05-06T22:46:42Z</time></trkpt>
<trkpt lat="50.012949" lon="4.519686"><time>2026-05-06T22:56:42Z</time></trkpt>
<trkpt lat="50.011194" lon="4.521271"><time>2026-05-06T23:06:42Z</time></trkpt>
<trkpt lat="50.006691" lon="4.520154"><time>2026-05-06T23:16:42Z</time></trkpt>
<trkpt lat="50.005648" lon="4.519830"><time>2026-05-06T23:26:42Z</time></trkpt>
</trkseg>
</trk>
<trk>
<name>ncvcv53</name>
<cmt>s</cmt>
<desc>Couvin Chemin n°53 </desc>
<link href="https://chemins.be/couvin/chemin/53"/><trkseg>
<trkpt lat="50.021229" lon="4.526368"><time>2026-05-06T20:36:42Z</time></trkpt>
<trkpt lat="50.019385" lon="4.527018"><time>2026-05-06T20:46:42Z</time></trkpt>
</trkseg></trk>
<trk>
<name>ncvcv53</name>
<cmt>v</cmt>
<desc>Couvin Chemin n°53 </desc>
<link href="https://chemins.be/couvin/chemin/53"/><trkseg>
<trkpt lat="50.019385" lon="4.527018"><time>2026-05-06T20:46:42Z</time></trkpt>
<trkpt lat="50.017848" lon="4.527013"><time>2026-05-06T20:56:42Z</time></trkpt>
<trkpt lat="50.014564" lon="4.528858"><time>2026-05-06T21:06:42Z</time></trkpt>
<trkpt lat="50.012296" lon="4.530664"><time>2026-05-06T21:16:42Z</time></trkpt>
<trkpt lat="50.011254" lon="4.530060"><time>2026-05-06T21:26:42Z</time></trkpt>
<trkpt lat="50.009384" lon="4.529929"><time>2026-05-06T21:36:42Z</time></trkpt>
<trkpt lat="50.007450" lon="4.530327"><time>2026-05-06T21:46:42Z</time></trkpt>
</trkseg></trk>
<trk>
<name>ncvcv53</name>
<cmt>s</cmt>
<desc>Couvin Chemin n°53 </desc>
<link href="https://chemins.be/couvin/chemin/53"/><trkseg>
<trkpt lat="50.007450" lon="4.530327"><time>2026-05-06T21:46:42Z</time></trkpt>
<trkpt lat="50.005376" lon="4.528185"><time>2026-05-06T21:56:42Z</time></trkpt>
<trkpt lat="50.003347" lon="4.526058"><time>2026-05-06T22:06:42Z</time></trkpt>
</trkseg>
</trk>
<trk>
<name>ncvcv54</name>
<cmt>v</cmt>
<desc>Couvin Chemin n°54 </desc>
<link href="https://chemins.be/couvin/chemin/54"/><trkseg>
<trkpt lat="50.007374" lon="4.539631"><time>2026-05-06T20:36:42Z</time></trkpt>
<trkpt lat="50.006934" lon="4.538779"><time>2026-05-06T20:46:42Z</time></trkpt>
<trkpt lat="50.006531" lon="4.537926"><time>2026-05-06T20:56:42Z</time></trkpt>
<trkpt lat="50.005534" lon="4.537044"><time>2026-05-06T21:06:42Z</time></trkpt>
<trkpt lat="50.004879" lon="4.536484"><time>2026-05-06T21:16:42Z</time></trkpt>
</trkseg></trk>
<trk>
<name>ncvcv54</name>
<cmt>s</cmt>
<desc>Couvin Chemin n°54 </desc>
<link href="https://chemins.be/couvin/chemin/54"/><trkseg>
<trkpt lat="50.004879" lon="4.536484"><time>2026-05-06T21:16:42Z</time></trkpt>
<trkpt lat="50.004144" lon="4.535142"><time>2026-05-06T21:26:42Z</time></trkpt>
<trkpt lat="50.001649" lon="4.532148"><time>2026-05-06T21:36:42Z</time></trkpt>
<trkpt lat="50.000894" lon="4.531769"><time>2026-05-06T21:46:42Z</time></trkpt>
</trkseg>
</trk>
<trk>
<name>ncvcv55</name>
<cmt>s</cmt>
<desc>Couvin Chemin n°55 </desc>
<link href="https://chemins.be/couvin/chemin/55"/><trkseg>
<trkpt lat="50.007418" lon="4.539813"><time>2026-05-06T20:36:42Z</time></trkpt>
<trkpt lat="50.007614" lon="4.541055"><time>2026-05-06T20:46:42Z</time></trkpt>
<trkpt lat="50.007685" lon="4.542143"><time>2026-05-06T20:56:42Z</time></trkpt>
<trkpt lat="50.007277" lon="4.544081"><time>2026-05-06T21:06:42Z</time></trkpt>
<trkpt lat="50.007176" lon="4.545350"><time>2026-05-06T21:16:42Z</time></trkpt>
</trkseg>
</trk>
<trk>
<name>ncvcv56</name>
<cmt>s</cmt>
<desc>Couvin Chemin n°56 </desc>
<link href="https://chemins.be/couvin/chemin/56"/><trkseg>
<trkpt lat="50.010429" lon="4.578747"><time>2026-05-06T20:36:42Z</time></trkpt>
<trkpt lat="50.009516" lon="4.581185"><time>2026-05-06T20:46:42Z</time></trkpt>
<trkpt lat="50.008517" lon="4.581989"><time>2026-05-06T20:56:42Z</time></trkpt>
<trkpt lat="50.007730" lon="4.584274"><time>2026-05-06T21:06:42Z</time></trkpt>
<trkpt lat="50.007907" lon="4.590748"><time>2026-05-06T21:16:42Z</time></trkpt>
<trkpt lat="50.008425" lon="4.592271"><time>2026-05-06T21:26:42Z</time></trkpt>
<trkpt lat="50.008543" lon="4.596470"><time>2026-05-06T21:36:42Z</time></trkpt>
<trkpt lat="50.009309" lon="4.599836"><time>2026-05-06T21:46:42Z</time></trkpt>
</trkseg>
</trk>
<trk>
<name>ncvcv57</name>
<cmt>r</cmt>
<desc>Couvin Chemin n°57 Regniessart / Rue des Bouvreuils</desc>
<link href="https://chemins.be/couvin/chemin/57"/><trkseg>
<trkpt lat="50.017287" lon="4.593791"><time>2026-05-06T20:36:42Z</time></trkpt>
<trkpt lat="50.017376" lon="4.594378"><time>2026-05-06T20:46:42Z</time></trkpt>
<trkpt lat="50.017436" lon="4.595634"><time>2026-05-06T20:56:42Z</time></trkpt>
</trkseg></trk>
<trk>
<name>ncvcv57</name>
<cmt>v</cmt>
<desc>Couvin Chemin n°57 Regniessart / Rue des Bouvreuils</desc>
<link href="https://chemins.be/couvin/chemin/57"/><trkseg>
<trkpt lat="50.017436" lon="4.595634"><time>2026-05-06T20:56:42Z</time></trkpt>
<trkpt lat="50.016886" lon="4.596524"><time>2026-05-06T21:06:42Z</time></trkpt>
<trkpt lat="50.016858" lon="4.597012"><time>2026-05-06T21:16:42Z</time></trkpt>
</trkseg>
</trk>
<trk>
<name>ncvcv58</name>
<cmt>v</cmt>
<desc>Couvin Chemin n°58 </desc>
<link href="https://chemins.be/couvin/chemin/58"/><trkseg>
<trkpt lat="49.996969" lon="4.602343"><time>2026-05-06T20:36:42Z</time></trkpt>
<trkpt lat="49.995238" lon="4.600270"><time>2026-05-06T20:46:42Z</time></trkpt>
<trkpt lat="49.993507" lon="4.598379"><time>2026-05-06T20:56:42Z</time></trkpt>
<trkpt lat="49.992700" lon="4.597092"><time>2026-05-06T21:06:42Z</time></trkpt>
<trkpt lat="49.992047" lon="4.595192"><time>2026-05-06T21:16:42Z</time></trkpt>
<trkpt lat="49.991061" lon="4.593256"><time>2026-05-06T21:26:42Z</time></trkpt>
<trkpt lat="49.990868" lon="4.591797"><time>2026-05-06T21:36:42Z</time></trkpt>
<trkpt lat="49.988707" lon="4.588736"><time>2026-05-06T21:46:42Z</time></trkpt>
<trkpt lat="49.988540" lon="4.586432"><time>2026-05-06T21:56:42Z</time></trkpt>
<trkpt lat="49.987455" lon="4.584949"><time>2026-05-06T22:06:42Z</time></trkpt>
</trkseg>
</trk>
<trk>
<name>ncvcv59</name>
<cmt>s</cmt>
<desc>Couvin Chemin n°59 Avenue de la Libération</desc>
<link href="https://chemins.be/couvin/chemin/59"/><trkseg>
<trkpt lat="50.054679" lon="4.485271"><time>2026-05-06T20:36:42Z</time></trkpt>
<trkpt lat="50.054740" lon="4.486598"><time>2026-05-06T20:46:42Z</time></trkpt>
<trkpt lat="50.054973" lon="4.487743"><time>2026-05-06T20:56:42Z</time></trkpt>
<trkpt lat="50.055403" lon="4.489392"><time>2026-05-06T21:06:42Z</time></trkpt>
</trkseg>
</trk>
<trk>
<name>ncvcv60</name>
<cmt>r</cmt>
<desc>Couvin Chemin n°60 Chemin du Try Châlons</desc>
<link href="https://chemins.be/couvin/chemin/60"/><trkseg>
<trkpt lat="50.059830" lon="4.494459"><time>2026-05-06T20:36:42Z</time></trkpt>
<trkpt lat="50.060173" lon="4.493329"><time>2026-05-06T20:46:42Z</time></trkpt>
<trkpt lat="50.060389" lon="4.492505"><time>2026-05-06T20:56:42Z</time></trkpt>
</trkseg>
</trk>
<trk>
<name>ncvcv61</name>
<cmt>d</cmt>
<desc>Couvin Sentier n°61 </desc>
<link href="https://chemins.be/couvin/sentier/61"/><trkseg>
<trkpt lat="50.070855" lon="4.474164"><time>2026-05-06T20:36:42Z</time></trkpt>
<trkpt lat="50.069685" lon="4.474999"><time>2026-05-06T20:46:42Z</time></trkpt>
<trkpt lat="50.067526" lon="4.476587"><time>2026-05-06T20:56:42Z</time></trkpt>
<trkpt lat="50.066132" lon="4.477170"><time>2026-05-06T21:06:42Z</time></trkpt>
<trkpt lat="50.064033" lon="4.481020"><time>2026-05-06T21:16:42Z</time></trkpt>
<trkpt lat="50.062035" lon="4.483208"><time>2026-05-06T21:26:42Z</time></trkpt>
<trkpt lat="50.060568" lon="4.484825"><time>2026-05-06T21:36:42Z</time></trkpt>
<trkpt lat="50.059767" lon="4.485409"><time>2026-05-06T21:46:42Z</time></trkpt>
</trkseg>
</trk>
<trk>
<name>ncvcv62</name>
<cmt>d</cmt>
<desc>Couvin Sentier n°62 </desc>
<link href="https://chemins.be/couvin/sentier/62"/><trkseg>
<trkpt lat="50.068893" lon="4.465876"><time>2026-05-06T20:36:42Z</time></trkpt>
<trkpt lat="50.068489" lon="4.465191"><time>2026-05-06T20:46:42Z</time></trkpt>
<trkpt lat="50.065829" lon="4.463984"><time>2026-05-06T20:56:42Z</time></trkpt>
</trkseg></trk>
<trk>
<name>ncvcv62</name>
<cmt>v</cmt>
<desc>Couvin Sentier n°62 </desc>
<link href="https://chemins.be/couvin/sentier/62"/><trkseg>
<trkpt lat="50.065829" lon="4.463984"><time>2026-05-06T20:56:42Z</time></trkpt>
<trkpt lat="50.064912" lon="4.463996"><time>2026-05-06T21:06:42Z</time></trkpt>
<trkpt lat="50.063923" lon="4.463533"><time>2026-05-06T21:16:42Z</time></trkpt>
</trkseg></trk>
<trk>
<name>ncvcv62</name>
<cmt>d</cmt>
<desc>Couvin Sentier n°62 </desc>
<link href="https://chemins.be/couvin/sentier/62"/><trkseg>
<trkpt lat="50.063923" lon="4.463533"><time>2026-05-06T21:16:42Z</time></trkpt>
<trkpt lat="50.062162" lon="4.462901"><time>2026-05-06T21:26:42Z</time></trkpt>
<trkpt lat="50.061640" lon="4.462440"><time>2026-05-06T21:36:42Z</time></trkpt>
<trkpt lat="50.059520" lon="4.461360"><time>2026-05-06T21:46:42Z</time></trkpt>
</trkseg>
</trk>
<trk>
<name>ncvcv63</name>
<cmt>s</cmt>
<desc>Couvin Sentier n°63 </desc>
<link href="https://chemins.be/couvin/sentier/63"/><trkseg>
<trkpt lat="50.057619" lon="4.493099"><time>2026-05-06T20:36:42Z</time></trkpt>
<trkpt lat="50.059364" lon="4.492670"><time>2026-05-06T20:46:42Z</time></trkpt>
<trkpt lat="50.060209" lon="4.492449"><time>2026-05-06T20:56:42Z</time></trkpt>
<trkpt lat="50.060353" lon="4.492463"><time>2026-05-06T21:06:42Z</time></trkpt>
</trkseg>
</trk>
<trk>
<name>ncvcv64</name>
<cmt>s</cmt>
<desc>Couvin Sentier n°64 </desc>
<link href="https://chemins.be/couvin/sentier/64"/><trkseg>
<trkpt lat="50.057355" lon="4.496729"><time>2026-05-06T20:36:42Z</time></trkpt>
<trkpt lat="50.057894" lon="4.496968"><time>2026-05-06T20:46:42Z</time></trkpt>
<trkpt lat="50.059386" lon="4.497139"><time>2026-05-06T20:56:42Z</time></trkpt>
<trkpt lat="50.059844" lon="4.497350"><time>2026-05-06T21:06:42Z</time></trkpt>
</trkseg>
</trk>
<trk>
<name>ncvcv65</name>
<cmt>v</cmt>
<desc>Couvin Sentier n°65 </desc>
<link href="https://chemins.be/couvin/sentier/65"/><trkseg>
<trkpt lat="50.057265" lon="4.496729"><time>2026-05-06T20:36:42Z</time></trkpt>
<trkpt lat="50.057282" lon="4.497720"><time>2026-05-06T20:46:42Z</time></trkpt>
<trkpt lat="50.057749" lon="4.498098"><time>2026-05-06T20:56:42Z</time></trkpt>
<trkpt lat="50.059375" lon="4.498801"><time>2026-05-06T21:06:42Z</time></trkpt>
<trkpt lat="50.060516" lon="4.499838"><time>2026-05-06T21:16:42Z</time></trkpt>
<trkpt lat="50.060659" lon="4.500732"><time>2026-05-06T21:26:42Z</time></trkpt>
</trkseg>
</trk>
<trk>
<name>ncvcv66</name>
<cmt>r</cmt>
<desc>Couvin Sentier n°66 Rue de la Cense Argile</desc>
<link href="https://chemins.be/couvin/sentier/66"/><trkseg>
<trkpt lat="50.054688" lon="4.485090"><time>2026-05-06T20:36:42Z</time></trkpt>
<trkpt lat="50.054237" lon="4.486220"><time>2026-05-06T20:46:42Z</time></trkpt>
<trkpt lat="50.054101" lon="4.487364"><time>2026-05-06T20:56:42Z</time></trkpt>
<trkpt lat="50.053812" lon="4.488592"><time>2026-05-06T21:06:42Z</time></trkpt>
<trkpt lat="50.053677" lon="4.488746"><time>2026-05-06T21:16:42Z</time></trkpt>
</trkseg></trk>
<trk>
<name>ncvcv66</name>
<cmt>b</cmt>
<desc>Couvin Sentier n°66 Rue de la Cense Argile</desc>
<link href="https://chemins.be/couvin/sentier/66"/><trkseg>
<trkpt lat="50.053677" lon="4.488746"><time>2026-05-06T21:16:42Z</time></trkpt>
<trkpt lat="50.052958" lon="4.489065"><time>2026-05-06T21:26:42Z</time></trkpt>
<trkpt lat="50.052714" lon="4.489623"><time>2026-05-06T21:36:42Z</time></trkpt>
<trkpt lat="50.052552" lon="4.489692"><time>2026-05-06T21:46:42Z</time></trkpt>
</trkseg>
</trk>
<trk>
<name>ncvcv66bis</name>
<cmt>b</cmt>
<desc>Couvin Sentier n°66bis </desc>
<link href="https://chemins.be/couvin/sentier/66bis"/><trkseg>
<trkpt lat="50.049369" lon="4.498369"><time>2026-05-06T20:36:42Z</time></trkpt>
<trkpt lat="50.048974" lon="4.498382"><time>2026-05-06T20:46:42Z</time></trkpt>
</trkseg></trk>
<trk>
<name>ncvcv66bis</name>
<cmt>v</cmt>
<desc>Couvin Sentier n°66bis </desc>
<link href="https://chemins.be/couvin/sentier/66bis"/><trkseg>
<trkpt lat="50.048974" lon="4.498382"><time>2026-05-06T20:46:42Z</time></trkpt>
<trkpt lat="50.048407" lon="4.498338"><time>2026-05-06T20:56:42Z</time></trkpt>
<trkpt lat="50.048048" lon="4.498212"><time>2026-05-06T21:06:42Z</time></trkpt>
<trkpt lat="50.047878" lon="4.497653"><time>2026-05-06T21:16:42Z</time></trkpt>
</trkseg>
</trk>
<trk>
<name>ncvcv67</name>
<cmt>d</cmt>
<desc>Couvin Sentier n°67 </desc>
<link href="https://chemins.be/couvin/sentier/67"/><trkseg>
<trkpt lat="50.051852" lon="4.486552"><time>2026-05-06T20:36:42Z</time></trkpt>
<trkpt lat="50.052333" lon="4.484023"><time>2026-05-06T20:46:42Z</time></trkpt>
<trkpt lat="50.052759" lon="4.481301"><time>2026-05-06T20:56:42Z</time></trkpt>
<trkpt lat="50.052912" lon="4.480994"><time>2026-05-06T21:06:42Z</time></trkpt>
<trkpt lat="50.052957" lon="4.480715"><time>2026-05-06T21:16:42Z</time></trkpt>
</trkseg></trk>
<trk>
<name>ncvcv67</name>
<cmt>b</cmt>
<desc>Couvin Sentier n°67 </desc>
<link href="https://chemins.be/couvin/sentier/67"/><trkseg>
<trkpt lat="50.052957" lon="4.480715"><time>2026-05-06T21:16:42Z</time></trkpt>
<trkpt lat="50.053093" lon="4.479821"><time>2026-05-06T21:26:42Z</time></trkpt>
</trkseg>
</trk>
<trk>
<name>ncvcv68</name>
<cmt>d</cmt>
<desc>Couvin Sentier n°68 </desc>
<link href="https://chemins.be/couvin/sentier/68"/><trkseg>
<trkpt lat="50.050263" lon="4.487020"><time>2026-05-06T20:36:42Z</time></trkpt>
<trkpt lat="50.049720" lon="4.489531"><time>2026-05-06T20:46:42Z</time></trkpt>
</trkseg>
</trk>
<trk>
<name>ncvcv69</name>
<cmt>d</cmt>
<desc>Couvin Sentier n°69 </desc>
<link href="https://chemins.be/couvin/sentier/69"/><trkseg>
<trkpt lat="50.050310" lon="4.475123"><time>2026-05-06T20:36:42Z</time></trkpt>
<trkpt lat="50.049843" lon="4.474689"><time>2026-05-06T20:46:42Z</time></trkpt>
<trkpt lat="50.049699" lon="4.474550"><time>2026-05-06T20:56:42Z</time></trkpt>
<trkpt lat="50.048918" lon="4.473822"><time>2026-05-06T21:06:42Z</time></trkpt>
</trkseg>
</trk>
<trk>
<name>ncvcv70</name>
<cmt>v</cmt>
<desc>Couvin Sentier n°70 Rue des Rochettes</desc>
<link href="https://chemins.be/couvin/sentier/70"/><trkseg>
<trkpt lat="50.047932" lon="4.497416"><time>2026-05-06T20:36:42Z</time></trkpt>
<trkpt lat="50.047438" lon="4.496856"><time>2026-05-06T20:46:42Z</time></trkpt>
<trkpt lat="50.047411" lon="4.496562"><time>2026-05-06T20:56:42Z</time></trkpt>
<trkpt lat="50.047331" lon="4.496297"><time>2026-05-06T21:06:42Z</time></trkpt>
<trkpt lat="50.046883" lon="4.494676"><time>2026-05-06T21:16:42Z</time></trkpt>
<trkpt lat="50.046614" lon="4.494019"><time>2026-05-06T21:26:42Z</time></trkpt>
<trkpt lat="50.043345" lon="4.490632"><time>2026-05-06T21:36:42Z</time></trkpt>
</trkseg>
</trk>
<trk>
<name>ncvcv71</name>
<cmt>v</cmt>
<desc>Couvin Sentier n°71 </desc>
<link href="https://chemins.be/couvin/sentier/71"/><trkseg>
<trkpt lat="50.048966" lon="4.496846"><time>2026-05-06T20:36:42Z</time></trkpt>
<trkpt lat="50.048644" lon="4.495700"><time>2026-05-06T20:46:42Z</time></trkpt>
<trkpt lat="50.048770" lon="4.495463"><time>2026-05-06T20:56:42Z</time></trkpt>
<trkpt lat="50.048680" lon="4.495477"><time>2026-05-06T21:06:42Z</time></trkpt>
<trkpt lat="50.048411" lon="4.495155"><time>2026-05-06T21:16:42Z</time></trkpt>
<trkpt lat="50.048384" lon="4.495057"><time>2026-05-06T21:26:42Z</time></trkpt>
<trkpt lat="50.048375" lon="4.494904"><time>2026-05-06T21:36:42Z</time></trkpt>
</trkseg>
</trk>
<trk>
<name>ncvcv72</name>
<cmt>s</cmt>
<desc>Couvin Sentier n°72 Rue de la Falaise</desc>
<link href="https://chemins.be/couvin/sentier/72"/><trkseg>
<trkpt lat="50.049072" lon="4.498996"><time>2026-05-06T20:36:42Z</time></trkpt>
<trkpt lat="50.048424" lon="4.499260"><time>2026-05-06T20:46:42Z</time></trkpt>
</trkseg></trk>
<trk>
<name>ncvcv72</name>
<cmt>r</cmt>
<desc>Couvin Sentier n°72 Rue de la Falaise</desc>
<link href="https://chemins.be/couvin/sentier/72"/><trkseg>
<trkpt lat="50.048424" lon="4.499260"><time>2026-05-06T20:46:42Z</time></trkpt>
<trkpt lat="50.047291" lon="4.499829"><time>2026-05-06T20:56:42Z</time></trkpt>
</trkseg>
</trk>
<trk>
<name>ncvcv73</name>
<cmt>v</cmt>
<desc>Couvin Sentier n°73 Venelle des Juifs</desc>
<link href="https://chemins.be/couvin/sentier/73"/><trkseg>
<trkpt lat="50.049599" lon="4.501818"><time>2026-05-06T20:36:42Z</time></trkpt>
<trkpt lat="50.049312" lon="4.501440"><time>2026-05-06T20:46:42Z</time></trkpt>
<trkpt lat="50.049096" lon="4.501244"><time>2026-05-06T20:56:42Z</time></trkpt>
<trkpt lat="50.048638" lon="4.501355"><time>2026-05-06T21:06:42Z</time></trkpt>
</trkseg>
</trk>
<trk>
<name>ncvcv74</name>
<cmt>v</cmt>
<desc>Couvin Sentier n°74 </desc>
<link href="https://chemins.be/couvin/sentier/74"/><trkseg>
<trkpt lat="50.050874" lon="4.503372"><time>2026-05-06T20:36:42Z</time></trkpt>
<trkpt lat="50.051761" lon="4.507102"><time>2026-05-06T20:46:42Z</time></trkpt>
<trkpt lat="50.052404" lon="4.509618"><time>2026-05-06T20:56:42Z</time></trkpt>
</trkseg>
</trk>
<trk>
<name>ncvcv75</name>
<cmt>r</cmt>
<desc>Couvin Sentier n°75 Rue des Calvaires</desc>
<link href="https://chemins.be/couvin/sentier/75"/><trkseg>
<trkpt lat="50.050282" lon="4.501653"><time>2026-05-06T20:36:42Z</time></trkpt>
<trkpt lat="50.050327" lon="4.502197"><time>2026-05-06T20:46:42Z</time></trkpt>
<trkpt lat="50.050434" lon="4.503049"><time>2026-05-06T20:56:42Z</time></trkpt>
</trkseg></trk>
<trk>
<name>ncvcv75</name>
<cmt>d</cmt>
<desc>Couvin Sentier n°75 Rue des Calvaires</desc>
<link href="https://chemins.be/couvin/sentier/75"/><trkseg>
<trkpt lat="50.050434" lon="4.503049"><time>2026-05-06T20:56:42Z</time></trkpt>
<trkpt lat="50.049606" lon="4.510838"><time>2026-05-06T21:06:42Z</time></trkpt>
</trkseg>
</trk>
<trk>
<name>ncvcv76</name>
<cmt>b</cmt>
<desc>Couvin Sentier n°76 </desc>
<link href="https://chemins.be/couvin/sentier/76"/><trkseg>
<trkpt lat="50.047446" lon="4.505275"><time>2026-05-06T20:36:42Z</time></trkpt>
<trkpt lat="50.046203" lon="4.507324"><time>2026-05-06T20:46:42Z</time></trkpt>
</trkseg></trk>
<trk>
<name>ncvcv76</name>
<cmt>d</cmt>
<desc>Couvin Sentier n°76 </desc>
<link href="https://chemins.be/couvin/sentier/76"/><trkseg>
<trkpt lat="50.046203" lon="4.507324"><time>2026-05-06T20:46:42Z</time></trkpt>
<trkpt lat="50.045275" lon="4.508829"><time>2026-05-06T20:56:42Z</time></trkpt>
<trkpt lat="50.044852" lon="4.509567"><time>2026-05-06T21:06:42Z</time></trkpt>
<trkpt lat="50.044041" lon="4.510905"><time>2026-05-06T21:16:42Z</time></trkpt>
</trkseg></trk>
<trk>
<name>ncvcv76</name>
<cmt>s</cmt>
<desc>Couvin Sentier n°76 </desc>
<link href="https://chemins.be/couvin/sentier/76"/><trkseg>
<trkpt lat="50.044041" lon="4.510905"><time>2026-05-06T21:16:42Z</time></trkpt>
<trkpt lat="50.043635" lon="4.511672"><time>2026-05-06T21:26:42Z</time></trkpt>
</trkseg></trk>
<trk>
<name>ncvcv76</name>
<cmt>v</cmt>
<desc>Couvin Sentier n°76 </desc>
<link href="https://chemins.be/couvin/sentier/76"/><trkseg>
<trkpt lat="50.043635" lon="4.511672"><time>2026-05-06T21:26:42Z</time></trkpt>
<trkpt lat="50.042040" lon="4.514641"><time>2026-05-06T21:36:42Z</time></trkpt>
<trkpt lat="50.041366" lon="4.514904"><time>2026-05-06T21:46:42Z</time></trkpt>
</trkseg></trk>
<trk>
<name>ncvcv76</name>
<cmt>d</cmt>
<desc>Couvin Sentier n°76 </desc>
<link href="https://chemins.be/couvin/sentier/76"/><trkseg>
<trkpt lat="50.041366" lon="4.514904"><time>2026-05-06T21:46:42Z</time></trkpt>
<trkpt lat="50.040178" lon="4.515780"><time>2026-05-06T21:56:42Z</time></trkpt>
<trkpt lat="50.039664" lon="4.516560"><time>2026-05-06T22:06:42Z</time></trkpt>
<trkpt lat="50.039367" lon="4.516699"><time>2026-05-06T22:16:42Z</time></trkpt>
<trkpt lat="50.038738" lon="4.516920"><time>2026-05-06T22:26:42Z</time></trkpt>
<trkpt lat="50.036892" lon="4.518743"><time>2026-05-06T22:36:42Z</time></trkpt>
</trkseg></trk>
<trk>
<name>ncvcv76</name>
<cmt>v</cmt>
<desc>Couvin Sentier n°76 </desc>
<link href="https://chemins.be/couvin/sentier/76"/><trkseg>
<trkpt lat="50.036892" lon="4.518743"><time>2026-05-06T22:36:42Z</time></trkpt>
<trkpt lat="50.036399" lon="4.518169"><time>2026-05-06T22:46:42Z</time></trkpt>
</trkseg>
</trk>
<trk>
<name>ncvcv77</name>
<cmt>s</cmt>
<desc>Couvin Sentier n°77 </desc>
<link href="https://chemins.be/couvin/sentier/77"/><trkseg>
<trkpt lat="50.045254" lon="4.503984"><time>2026-05-06T20:36:42Z</time></trkpt>
<trkpt lat="50.045101" lon="4.504012"><time>2026-05-06T20:46:42Z</time></trkpt>
<trkpt lat="50.044993" lon="4.504458"><time>2026-05-06T20:56:42Z</time></trkpt>
<trkpt lat="50.044299" lon="4.505350"><time>2026-05-06T21:06:42Z</time></trkpt>
</trkseg>
</trk>
<trk>
<name>ncvcv78</name>
<cmt>v</cmt>
<desc>Couvin Sentier n°78 </desc>
<link href="https://chemins.be/couvin/sentier/78"/><trkseg>
<trkpt lat="50.014190" lon="4.581973"><time>2026-05-06T20:36:42Z</time></trkpt>
<trkpt lat="50.013911" lon="4.582195"><time>2026-05-06T20:46:42Z</time></trkpt>
<trkpt lat="50.013829" lon="4.582585"><time>2026-05-06T20:56:42Z</time></trkpt>
</trkseg></trk>
<trk>
<name>ncvcv78</name>
<cmt>d</cmt>
<desc>Couvin Sentier n°78 </desc>
<link href="https://chemins.be/couvin/sentier/78"/><trkseg>
<trkpt lat="50.013829" lon="4.582585"><time>2026-05-06T20:56:42Z</time></trkpt>
<trkpt lat="50.013666" lon="4.583380"><time>2026-05-06T21:06:42Z</time></trkpt>
<trkpt lat="50.013430" lon="4.584593"><time>2026-05-06T21:16:42Z</time></trkpt>
</trkseg>
</trk>
<trk>
<name>ncvcv79</name>
<cmt>d</cmt>
<desc>Couvin Sentier n°79 </desc>
<link href="https://chemins.be/couvin/sentier/79"/><trkseg>
<trkpt lat="50.016875" lon="4.602050"><time>2026-05-06T20:36:42Z</time></trkpt>
<trkpt lat="50.016850" lon="4.601031"><time>2026-05-06T20:46:42Z</time></trkpt>
<trkpt lat="50.016855" lon="4.598505"><time>2026-05-06T20:56:42Z</time></trkpt>
<trkpt lat="50.016784" lon="4.597919"><time>2026-05-06T21:06:42Z</time></trkpt>
<trkpt lat="50.016875" lon="4.597780"><time>2026-05-06T21:16:42Z</time></trkpt>
<trkpt lat="50.016804" lon="4.596998"><time>2026-05-06T21:26:42Z</time></trkpt>
<trkpt lat="50.015885" lon="4.593757"><time>2026-05-06T21:36:42Z</time></trkpt>
<trkpt lat="50.015204" lon="4.592191"><time>2026-05-06T21:46:42Z</time></trkpt>
<trkpt lat="50.014091" lon="4.586465"><time>2026-05-06T21:56:42Z</time></trkpt>
<trkpt lat="50.013638" lon="4.583561"><time>2026-05-06T22:06:42Z</time></trkpt>
</trkseg>
</trk>
<trk>
<name>ncvcv80</name>
<cmt>d</cmt>
<desc>Couvin Sentier n°80 </desc>
<link href="https://chemins.be/couvin/sentier/80"/><trkseg>
<trkpt lat="50.014130" lon="4.594390"><time>2026-05-06T20:36:42Z</time></trkpt>
<trkpt lat="50.014192" lon="4.595074"><time>2026-05-06T20:46:42Z</time></trkpt>
<trkpt lat="50.014300" lon="4.594991"><time>2026-05-06T20:56:42Z</time></trkpt>
<trkpt lat="50.014739" lon="4.595509"><time>2026-05-06T21:06:42Z</time></trkpt>
<trkpt lat="50.015071" lon="4.596167"><time>2026-05-06T21:16:42Z</time></trkpt>
<trkpt lat="50.016785" lon="4.597556"><time>2026-05-06T21:26:42Z</time></trkpt>
</trkseg>
</trk>
<trk>
<name>ncvcv81</name>
<cmt>d</cmt>
<desc>Couvin Sentier n°81 </desc>
<link href="https://chemins.be/couvin/sentier/81"/><trkseg>
<trkpt lat="50.039709" lon="4.501986"><time>2026-05-06T20:36:42Z</time></trkpt>
<trkpt lat="50.039755" lon="4.501274"><time>2026-05-06T20:46:42Z</time></trkpt>
<trkpt lat="50.038955" lon="4.500588"><time>2026-05-06T20:56:42Z</time></trkpt>
<trkpt lat="50.038579" lon="4.499805"><time>2026-05-06T21:06:42Z</time></trkpt>
<trkpt lat="50.038130" lon="4.498855"><time>2026-05-06T21:16:42Z</time></trkpt>
<trkpt lat="50.037269" lon="4.497387"><time>2026-05-06T21:26:42Z</time></trkpt>
<trkpt lat="50.036343" lon="4.497342"><time>2026-05-06T21:36:42Z</time></trkpt>
<trkpt lat="50.036136" lon="4.497356"><time>2026-05-06T21:46:42Z</time></trkpt>
<trkpt lat="50.035821" lon="4.497299"><time>2026-05-06T21:56:42Z</time></trkpt>
<trkpt lat="50.035291" lon="4.496907"><time>2026-05-06T22:06:42Z</time></trkpt>
</trkseg>
</trk>
<trk>
<name>ncvcv82</name>
<cmt>d</cmt>
<desc>Couvin Sentier n°82 </desc>
<link href="https://chemins.be/couvin/sentier/82"/><trkseg>
<trkpt lat="50.036158" lon="4.501864"><time>2026-05-06T20:36:42Z</time></trkpt>
<trkpt lat="50.035276" lon="4.502225"><time>2026-05-06T20:46:42Z</time></trkpt>
<trkpt lat="50.034260" lon="4.502850"><time>2026-05-06T20:56:42Z</time></trkpt>
</trkseg>
</trk>
<trk>
<name>ncvcv83</name>
<cmt>s</cmt>
<desc>Couvin Sentier n°83 </desc>
<link href="https://chemins.be/couvin/sentier/83"/><trkseg>
<trkpt lat="50.049653" lon="4.493888"><time>2026-05-06T20:36:42Z</time></trkpt>
<trkpt lat="50.049635" lon="4.493357"><time>2026-05-06T20:46:42Z</time></trkpt>
</trkseg>
</trk>
<trk>
<name>ncvcv84</name>
<cmt>v</cmt>
<desc>Couvin Sentier n°84 </desc>
<link href="https://chemins.be/couvin/sentier/84"/><trkseg>
<trkpt lat="50.050085" lon="4.501736"><time>2026-05-06T20:36:42Z</time></trkpt>
<trkpt lat="50.049833" lon="4.501456"><time>2026-05-06T20:46:42Z</time></trkpt>
</trkseg>
</trk>
<trk>
<name>ncvcv85</name>
<cmt>s</cmt>
<desc>Couvin Sentier n°85 </desc>
<link href="https://chemins.be/couvin/sentier/85"/><trkseg>
<trkpt lat="50.050960" lon="4.498848"><time>2026-05-06T20:36:42Z</time></trkpt>
<trkpt lat="50.051409" lon="4.499003"><time>2026-05-06T20:46:42Z</time></trkpt>
</trkseg>
</trk>
<trk>
<name>ncvcv86</name>
<cmt>b</cmt>
<desc>Couvin Sentier n°86 </desc>
<link href="https://chemins.be/couvin/sentier/86"/><trkseg>
<trkpt lat="50.050755" lon="4.497409"><time>2026-05-06T20:36:42Z</time></trkpt>
<trkpt lat="50.050907" lon="4.497731"><time>2026-05-06T20:46:42Z</time></trkpt>
</trkseg>
</trk>
<trk>
<name>ncvcv87</name>
<cmt>v</cmt>
<desc>Couvin Sentier n°87 </desc>
<link href="https://chemins.be/couvin/sentier/87"/><trkseg>
<trkpt lat="50.049747" lon="4.498286"><time>2026-05-06T20:36:42Z</time></trkpt>
<trkpt lat="50.049801" lon="4.498426"><time>2026-05-06T20:46:42Z</time></trkpt>
<trkpt lat="50.049918" lon="4.498426"><time>2026-05-06T20:56:42Z</time></trkpt>
</trkseg>
</trk>
<trk>
<name>ncvcv88</name>
<cmt>v</cmt>
<desc>Couvin Sentier n°88 </desc>
<link href="https://chemins.be/couvin/sentier/88"/><trkseg>
<trkpt lat="50.051330" lon="4.497341"><time>2026-05-06T20:36:42Z</time></trkpt>
<trkpt lat="50.051285" lon="4.497299"><time>2026-05-06T20:46:42Z</time></trkpt>
<trkpt lat="50.051006" lon="4.497871"><time>2026-05-06T20:56:42Z</time></trkpt>
<trkpt lat="50.051114" lon="4.498052"><time>2026-05-06T21:06:42Z</time></trkpt>
</trkseg>
</trk>
<trk>
<name>ncvcvi1</name>
<cmt>v</cmt>
<desc>Couvin Sentier n°i1 </desc>
<link href="https://chemins.be/couvin/sentier/i1"/><trkseg>
<trkpt lat="50.049018" lon="4.498647"><time>2026-05-06T20:36:42Z</time></trkpt>
<trkpt lat="50.048965" lon="4.498438"><time>2026-05-06T20:46:42Z</time></trkpt>
</trkseg>
</trk>
<trk>
<name>ncvcvi10</name>
<cmt>v</cmt>
<desc>Couvin Sentier n°i10 </desc>
<link href="https://chemins.be/couvin/sentier/i10"/><trkseg>
<trkpt lat="50.051676" lon="4.496841"><time>2026-05-06T20:36:42Z</time></trkpt>
<trkpt lat="50.051594" lon="4.496708"><time>2026-05-06T20:46:42Z</time></trkpt>
<trkpt lat="50.051520" lon="4.496582"><time>2026-05-06T20:56:42Z</time></trkpt>
<trkpt lat="50.051376" lon="4.496461"><time>2026-05-06T21:06:42Z</time></trkpt>
</trkseg>
</trk>
<trk>
<name>ncvcvi11</name>
<cmt>v</cmt>
<desc>Couvin Sentier n°i11 </desc>
<link href="https://chemins.be/couvin/sentier/i11"/><trkseg>
<trkpt lat="50.051528" lon="4.496564"><time>2026-05-06T20:36:42Z</time></trkpt>
<trkpt lat="50.051571" lon="4.496478"><time>2026-05-06T20:46:42Z</time></trkpt>
<trkpt lat="50.051607" lon="4.496327"><time>2026-05-06T20:56:42Z</time></trkpt>
</trkseg>
</trk>
<trk>
<name>ncvcvi12</name>
<cmt>v</cmt>
<desc>Couvin Chemin n°i12 </desc>
<link href="https://chemins.be/couvin/chemin/i12"/><trkseg>
<trkpt lat="50.051745" lon="4.497233"><time>2026-05-06T20:36:42Z</time></trkpt>
<trkpt lat="50.051752" lon="4.497761"><time>2026-05-06T20:46:42Z</time></trkpt>
</trkseg>
</trk>
<trk>
<name>ncvcvi13</name>
<cmt>v</cmt>
<desc>Couvin Chemin n°i13 </desc>
<link href="https://chemins.be/couvin/chemin/i13"/><trkseg>
<trkpt lat="50.049901" lon="4.496862"><time>2026-05-06T20:36:42Z</time></trkpt>
<trkpt lat="50.049982" lon="4.497212"><time>2026-05-06T20:46:42Z</time></trkpt>
<trkpt lat="50.050134" lon="4.497743"><time>2026-05-06T20:56:42Z</time></trkpt>
</trkseg>
</trk>
<trk>
<name>ncvcvi14</name>
<cmt>v</cmt>
<desc>Couvin Sentier n°i14 </desc>
<link href="https://chemins.be/couvin/sentier/i14"/><trkseg>
<trkpt lat="50.050918" lon="4.496418"><time>2026-05-06T20:36:42Z</time></trkpt>
<trkpt lat="50.050972" lon="4.496572"><time>2026-05-06T20:46:42Z</time></trkpt>
<trkpt lat="50.050791" lon="4.496809"><time>2026-05-06T20:56:42Z</time></trkpt>
<trkpt lat="50.050027" lon="4.497170"><time>2026-05-06T21:06:42Z</time></trkpt>
</trkseg>
</trk>
<trk>
<name>ncvcvi15</name>
<cmt>v</cmt>
<desc>Couvin Chemin n°i15 </desc>
<link href="https://chemins.be/couvin/chemin/i15"/><trkseg>
<trkpt lat="50.052818" lon="4.476106"><time>2026-05-06T20:36:42Z</time></trkpt>
<trkpt lat="50.053096" lon="4.476177"><time>2026-05-06T20:46:42Z</time></trkpt>
</trkseg>
</trk>
<trk>
<name>ncvcvi16</name>
<cmt>v</cmt>
<desc>Couvin Chemin n°i16 </desc>
<link href="https://chemins.be/couvin/chemin/i16"/><trkseg>
<trkpt lat="50.065426" lon="4.482085"><time>2026-05-06T20:36:42Z</time></trkpt>
<trkpt lat="50.065340" lon="4.484580"><time>2026-05-06T20:46:42Z</time></trkpt>
<trkpt lat="50.065739" lon="4.485469"><time>2026-05-06T20:56:42Z</time></trkpt>
<trkpt lat="50.070403" lon="4.486304"><time>2026-05-06T21:06:42Z</time></trkpt>
<trkpt lat="50.070917" lon="4.486547"><time>2026-05-06T21:16:42Z</time></trkpt>
<trkpt lat="50.071335" lon="4.486347"><time>2026-05-06T21:26:42Z</time></trkpt>
<trkpt lat="50.072658" lon="4.486567"><time>2026-05-06T21:36:42Z</time></trkpt>
</trkseg>
</trk>
<trk>
<name>ncvcvi17</name>
<cmt>v</cmt>
<desc>Couvin Chemin n°i17 </desc>
<link href="https://chemins.be/couvin/chemin/i17"/><trkseg>
<trkpt lat="50.064437" lon="4.482138"><time>2026-05-06T20:36:42Z</time></trkpt>
<trkpt lat="50.065814" lon="4.479624"><time>2026-05-06T20:46:42Z</time></trkpt>
<trkpt lat="50.066111" lon="4.478285"><time>2026-05-06T20:56:42Z</time></trkpt>
<trkpt lat="50.066199" lon="4.477152"><time>2026-05-06T21:06:42Z</time></trkpt>
<trkpt lat="50.065869" lon="4.473753"><time>2026-05-06T21:16:42Z</time></trkpt>
<trkpt lat="50.066089" lon="4.473581"><time>2026-05-06T21:26:42Z</time></trkpt>
<trkpt lat="50.065648" lon="4.471350"><time>2026-05-06T21:36:42Z</time></trkpt>
<trkpt lat="50.064172" lon="4.467144"><time>2026-05-06T21:46:42Z</time></trkpt>
</trkseg>
</trk>
<trk>
<name>ncvcvi18</name>
<cmt>v</cmt>
<desc>Couvin Chemin n°i18 </desc>
<link href="https://chemins.be/couvin/chemin/i18"/><trkseg>
<trkpt lat="50.058507" lon="4.487180"><time>2026-05-06T20:36:42Z</time></trkpt>
<trkpt lat="50.058794" lon="4.487278"><time>2026-05-06T20:46:42Z</time></trkpt>
<trkpt lat="50.059641" lon="4.486317"><time>2026-05-06T20:56:42Z</time></trkpt>
<trkpt lat="50.061879" lon="4.486294"><time>2026-05-06T21:06:42Z</time></trkpt>
</trkseg>
</trk>
<trk>
<name>ncvcvi19</name>
<cmt>r</cmt>
<desc>Couvin Chemin n°i19 </desc>
<link href="https://chemins.be/couvin/chemin/i19"/><trkseg>
<trkpt lat="50.056067" lon="4.490204"><time>2026-05-06T20:36:42Z</time></trkpt>
<trkpt lat="50.056606" lon="4.490485"><time>2026-05-06T20:46:42Z</time></trkpt>
</trkseg>
</trk>
<trk>
<name>ncvcvi2</name>
<cmt>v</cmt>
<desc>Couvin Chemin n°i2 </desc>
<link href="https://chemins.be/couvin/chemin/i2"/><trkseg>
<trkpt lat="50.053470" lon="4.480311"><time>2026-05-06T20:36:42Z</time></trkpt>
<trkpt lat="50.053011" lon="4.480771"><time>2026-05-06T20:46:42Z</time></trkpt>
</trkseg>
</trk>
<trk>
<name>ncvcvi20</name>
<cmt>v</cmt>
<desc>Couvin Chemin n°i20 </desc>
<link href="https://chemins.be/couvin/chemin/i20"/><trkseg>
<trkpt lat="50.044380" lon="4.513224"><time>2026-05-06T20:36:42Z</time></trkpt>
<trkpt lat="50.043646" lon="4.511780"><time>2026-05-06T20:46:42Z</time></trkpt>
<trkpt lat="50.042941" lon="4.511888"><time>2026-05-06T20:56:42Z</time></trkpt>
<trkpt lat="50.042229" lon="4.510540"><time>2026-05-06T21:06:42Z</time></trkpt>
<trkpt lat="50.038830" lon="4.508705"><time>2026-05-06T21:16:42Z</time></trkpt>
</trkseg>
</trk>
<trk>
<name>ncvcvi21</name>
<cmt>v</cmt>
<desc>Couvin Chemin n°i21 </desc>
<link href="https://chemins.be/couvin/chemin/i21"/><trkseg>
<trkpt lat="50.046308" lon="4.511660"><time>2026-05-06T20:36:42Z</time></trkpt>
<trkpt lat="50.045058" lon="4.511281"><time>2026-05-06T20:46:42Z</time></trkpt>
</trkseg>
</trk>
<trk>
<name>ncvcvi22</name>
<cmt>v</cmt>
<desc>Couvin Chemin n°i22 </desc>
<link href="https://chemins.be/couvin/chemin/i22"/><trkseg>
<trkpt lat="50.041719" lon="4.497622"><time>2026-05-06T20:36:42Z</time></trkpt>
<trkpt lat="50.041115" lon="4.498933"><time>2026-05-06T20:46:42Z</time></trkpt>
<trkpt lat="50.040454" lon="4.499545"><time>2026-05-06T20:56:42Z</time></trkpt>
<trkpt lat="50.039594" lon="4.499511"><time>2026-05-06T21:06:42Z</time></trkpt>
<trkpt lat="50.038800" lon="4.498858"><time>2026-05-06T21:16:42Z</time></trkpt>
<trkpt lat="50.036970" lon="4.496146"><time>2026-05-06T21:26:42Z</time></trkpt>
<trkpt lat="50.032471" lon="4.491168"><time>2026-05-06T21:36:42Z</time></trkpt>
</trkseg>
</trk>
<trk>
<name>ncvcvi23</name>
<cmt>v</cmt>
<desc>Couvin Chemin n°i23 </desc>
<link href="https://chemins.be/couvin/chemin/i23"/><trkseg>
<trkpt lat="50.041915" lon="4.497591"><time>2026-05-06T20:36:42Z</time></trkpt>
<trkpt lat="50.041786" lon="4.497685"><time>2026-05-06T20:46:42Z</time></trkpt>
<trkpt lat="50.041702" lon="4.497601"><time>2026-05-06T20:56:42Z</time></trkpt>
<trkpt lat="50.041629" lon="4.497211"><time>2026-05-06T21:06:42Z</time></trkpt>
<trkpt lat="50.041634" lon="4.496969"><time>2026-05-06T21:16:42Z</time></trkpt>
<trkpt lat="50.040537" lon="4.494776"><time>2026-05-06T21:26:42Z</time></trkpt>
<trkpt lat="50.040229" lon="4.492961"><time>2026-05-06T21:36:42Z</time></trkpt>
<trkpt lat="50.039191" lon="4.490801"><time>2026-05-06T21:46:42Z</time></trkpt>
<trkpt lat="50.037814" lon="4.490386"><time>2026-05-06T21:56:42Z</time></trkpt>
<trkpt lat="50.037500" lon="4.489614"><time>2026-05-06T22:06:42Z</time></trkpt>
</trkseg>
</trk>
<trk>
<name>ncvcvi24</name>
<cmt>v</cmt>
<desc>Couvin Sentier n°i24 </desc>
<link href="https://chemins.be/couvin/sentier/i24"/><trkseg>
<trkpt lat="50.042518" lon="4.498350"><time>2026-05-06T20:36:42Z</time></trkpt>
<trkpt lat="50.042815" lon="4.497974"><time>2026-05-06T20:46:42Z</time></trkpt>
<trkpt lat="50.043212" lon="4.497417"><time>2026-05-06T20:56:42Z</time></trkpt>
<trkpt lat="50.043733" lon="4.497530"><time>2026-05-06T21:06:42Z</time></trkpt>
<trkpt lat="50.043859" lon="4.497516"><time>2026-05-06T21:16:42Z</time></trkpt>
<trkpt lat="50.045361" lon="4.497018"><time>2026-05-06T21:26:42Z</time></trkpt>
<trkpt lat="50.045765" lon="4.496991"><time>2026-05-06T21:36:42Z</time></trkpt>
<trkpt lat="50.046799" lon="4.496980"><time>2026-05-06T21:46:42Z</time></trkpt>
<trkpt lat="50.047213" lon="4.497051"><time>2026-05-06T21:56:42Z</time></trkpt>
<trkpt lat="50.047446" lon="4.497763"><time>2026-05-06T22:06:42Z</time></trkpt>
</trkseg>
</trk>
<trk>
<name>ncvcvi25</name>
<cmt>v</cmt>
<desc>Couvin Chemin n°i25 </desc>
<link href="https://chemins.be/couvin/chemin/i25"/><trkseg>
<trkpt lat="50.070270" lon="4.476605"><time>2026-05-06T20:36:42Z</time></trkpt>
<trkpt lat="50.070715" lon="4.482091"><time>2026-05-06T20:46:42Z</time></trkpt>
<trkpt lat="50.070839" lon="4.482127"><time>2026-05-06T20:56:42Z</time></trkpt>
<trkpt lat="50.071385" lon="4.482077"><time>2026-05-06T21:06:42Z</time></trkpt>
<trkpt lat="50.070913" lon="4.486540"><time>2026-05-06T21:16:42Z</time></trkpt>
</trkseg>
</trk>
<trk>
<name>ncvcvi26</name>
<cmt>q</cmt>
<desc>Couvin Chemin n°i26 </desc>
<link href="https://chemins.be/couvin/chemin/i26"/><trkseg>
<trkpt lat="50.067378" lon="4.480749"><time>2026-05-06T20:36:42Z</time></trkpt>
<trkpt lat="50.067690" lon="4.483347"><time>2026-05-06T20:46:42Z</time></trkpt>
</trkseg>
</trk>
<trk>
<name>ncvcvi27</name>
<cmt>v</cmt>
<desc>Couvin Sentier n°i27 </desc>
<link href="https://chemins.be/couvin/sentier/i27"/><trkseg>
<trkpt lat="50.034817" lon="4.505703"><time>2026-05-06T20:36:42Z</time></trkpt>
<trkpt lat="50.034657" lon="4.506093"><time>2026-05-06T20:46:42Z</time></trkpt>
<trkpt lat="50.034357" lon="4.506663"><time>2026-05-06T20:56:42Z</time></trkpt>
<trkpt lat="50.033937" lon="4.507143"><time>2026-05-06T21:06:42Z</time></trkpt>
<trkpt lat="50.034097" lon="4.508163"><time>2026-05-06T21:16:42Z</time></trkpt>
<trkpt lat="50.031867" lon="4.509863"><time>2026-05-06T21:26:42Z</time></trkpt>
<trkpt lat="50.029158" lon="4.513350"><time>2026-05-06T21:36:42Z</time></trkpt>
<trkpt lat="50.030323" lon="4.518300"><time>2026-05-06T21:46:42Z</time></trkpt>
<trkpt lat="50.031905" lon="4.525315"><time>2026-05-06T21:56:42Z</time></trkpt>
</trkseg>
</trk>
<trk>
<name>ncvcvi28</name>
<cmt>v</cmt>
<desc>Couvin Chemin n°i28 </desc>
<link href="https://chemins.be/couvin/chemin/i28"/><trkseg>
<trkpt lat="50.037245" lon="4.503344"><time>2026-05-06T20:36:42Z</time></trkpt>
<trkpt lat="50.037156" lon="4.503741"><time>2026-05-06T20:46:42Z</time></trkpt>
<trkpt lat="50.036935" lon="4.503998"><time>2026-05-06T20:56:42Z</time></trkpt>
<trkpt lat="50.036575" lon="4.505163"><time>2026-05-06T21:06:42Z</time></trkpt>
<trkpt lat="50.036526" lon="4.505484"><time>2026-05-06T21:16:42Z</time></trkpt>
<trkpt lat="50.036653" lon="4.508987"><time>2026-05-06T21:26:42Z</time></trkpt>
<trkpt lat="50.036846" lon="4.509706"><time>2026-05-06T21:36:42Z</time></trkpt>
<trkpt lat="50.037601" lon="4.511172"><time>2026-05-06T21:46:42Z</time></trkpt>
<trkpt lat="50.037684" lon="4.512116"><time>2026-05-06T21:56:42Z</time></trkpt>
<trkpt lat="50.037513" lon="4.516677"><time>2026-05-06T22:06:42Z</time></trkpt>
<trkpt lat="50.037113" lon="4.518308"><time>2026-05-06T22:16:42Z</time></trkpt>
<trkpt lat="50.036893" lon="4.518716"><time>2026-05-06T22:26:42Z</time></trkpt>
</trkseg>
</trk>
<trk>
<name>ncvcvi29</name>
<cmt>v</cmt>
<desc>Couvin Sentier n°i29 </desc>
<link href="https://chemins.be/couvin/sentier/i29"/><trkseg>
<trkpt lat="50.042115" lon="4.497866"><time>2026-05-06T20:36:42Z</time></trkpt>
<trkpt lat="50.041782" lon="4.498308"><time>2026-05-06T20:46:42Z</time></trkpt>
<trkpt lat="50.041570" lon="4.498789"><time>2026-05-06T20:56:42Z</time></trkpt>
<trkpt lat="50.041145" lon="4.498870"><time>2026-05-06T21:06:42Z</time></trkpt>
</trkseg>
</trk>
<trk>
<name>ncvcvi3</name>
<cmt>s</cmt>
<desc>Couvin Sentier n°i3 Les Allées</desc>
<link href="https://chemins.be/couvin/sentier/i3"/><trkseg>
<trkpt lat="50.051818" lon="4.495024"><time>2026-05-06T20:36:42Z</time></trkpt>
<trkpt lat="50.051926" lon="4.495150"><time>2026-05-06T20:46:42Z</time></trkpt>
</trkseg>
</trk>
<trk>
<name>ncvcvi30</name>
<cmt>v</cmt>
<desc>Couvin Sentier n°i30 </desc>
<link href="https://chemins.be/couvin/sentier/i30"/><trkseg>
<trkpt lat="50.032355" lon="4.491394"><time>2026-05-06T20:36:42Z</time></trkpt>
<trkpt lat="50.032418" lon="4.491030"><time>2026-05-06T20:46:42Z</time></trkpt>
<trkpt lat="50.031809" lon="4.488940"><time>2026-05-06T20:56:42Z</time></trkpt>
<trkpt lat="50.031415" lon="4.486746"><time>2026-05-06T21:06:42Z</time></trkpt>
<trkpt lat="50.031320" lon="4.486440"><time>2026-05-06T21:16:42Z</time></trkpt>
<trkpt lat="50.030819" lon="4.485710"><time>2026-05-06T21:26:42Z</time></trkpt>
<trkpt lat="50.031463" lon="4.483879"><time>2026-05-06T21:36:42Z</time></trkpt>
<trkpt lat="50.031550" lon="4.482999"><time>2026-05-06T21:46:42Z</time></trkpt>
<trkpt lat="50.031109" lon="4.480932"><time>2026-05-06T21:56:42Z</time></trkpt>
<trkpt lat="50.031123" lon="4.479809"><time>2026-05-06T22:06:42Z</time></trkpt>
</trkseg>
</trk>
<trk>
<name>ncvcvi31</name>
<cmt>v</cmt>
<desc>Couvin Chemin n°i31 </desc>
<link href="https://chemins.be/couvin/chemin/i31"/><trkseg>
<trkpt lat="50.027348" lon="4.480833"><time>2026-05-06T20:36:42Z</time></trkpt>
<trkpt lat="50.027314" lon="4.480976"><time>2026-05-06T20:46:42Z</time></trkpt>
<trkpt lat="50.027076" lon="4.481023"><time>2026-05-06T20:56:42Z</time></trkpt>
<trkpt lat="50.026997" lon="4.481038"><time>2026-05-06T21:06:42Z</time></trkpt>
<trkpt lat="50.026752" lon="4.481161"><time>2026-05-06T21:16:42Z</time></trkpt>
<trkpt lat="50.026529" lon="4.481402"><time>2026-05-06T21:26:42Z</time></trkpt>
<trkpt lat="50.026331" lon="4.481840"><time>2026-05-06T21:36:42Z</time></trkpt>
<trkpt lat="50.025762" lon="4.482579"><time>2026-05-06T21:46:42Z</time></trkpt>
<trkpt lat="50.025085" lon="4.483005"><time>2026-05-06T21:56:42Z</time></trkpt>
<trkpt lat="50.024851" lon="4.482994"><time>2026-05-06T22:06:42Z</time></trkpt>
<trkpt lat="50.024480" lon="4.482529"><time>2026-05-06T22:16:42Z</time></trkpt>
<trkpt lat="50.023403" lon="4.482041"><time>2026-05-06T22:26:42Z</time></trkpt>
<trkpt lat="50.021984" lon="4.482008"><time>2026-05-06T22:36:42Z</time></trkpt>
<trkpt lat="50.021466" lon="4.481935"><time>2026-05-06T22:46:42Z</time></trkpt>
<trkpt lat="50.021048" lon="4.482109"><time>2026-05-06T22:56:42Z</time></trkpt>
<trkpt lat="50.020090" lon="4.483028"><time>2026-05-06T23:06:42Z</time></trkpt>
<trkpt lat="50.019773" lon="4.483067"><time>2026-05-06T23:16:42Z</time></trkpt>
<trkpt lat="50.019164" lon="4.482736"><time>2026-05-06T23:26:42Z</time></trkpt>
</trkseg>
</trk>
<trk>
<name>ncvcvi32</name>
<cmt>v</cmt>
<desc>Couvin Chemin n°i32 </desc>
<link href="https://chemins.be/couvin/chemin/i32"/><trkseg>
<trkpt lat="50.027066" lon="4.481044"><time>2026-05-06T20:36:42Z</time></trkpt>
<trkpt lat="50.026680" lon="4.485113"><time>2026-05-06T20:46:42Z</time></trkpt>
<trkpt lat="50.026310" lon="4.487368"><time>2026-05-06T20:56:42Z</time></trkpt>
<trkpt lat="50.026446" lon="4.489024"><time>2026-05-06T21:06:42Z</time></trkpt>
<trkpt lat="50.027132" lon="4.492031"><time>2026-05-06T21:16:42Z</time></trkpt>
<trkpt lat="50.027400" lon="4.493015"><time>2026-05-06T21:26:42Z</time></trkpt>
<trkpt lat="50.027739" lon="4.494503"><time>2026-05-06T21:36:42Z</time></trkpt>
<trkpt lat="50.027717" lon="4.496391"><time>2026-05-06T21:46:42Z</time></trkpt>
<trkpt lat="50.026901" lon="4.496614"><time>2026-05-06T21:56:42Z</time></trkpt>
</trkseg>
</trk>
<trk>
<name>ncvcvi33</name>
<cmt>v</cmt>
<desc>Couvin Sentier n°i33 </desc>
<link href="https://chemins.be/couvin/sentier/i33"/><trkseg>
<trkpt lat="50.027991" lon="4.501423"><time>2026-05-06T20:36:42Z</time></trkpt>
<trkpt lat="50.027853" lon="4.501302"><time>2026-05-06T20:46:42Z</time></trkpt>
<trkpt lat="50.027831" lon="4.500890"><time>2026-05-06T20:56:42Z</time></trkpt>
<trkpt lat="50.026758" lon="4.500098"><time>2026-05-06T21:06:42Z</time></trkpt>
<trkpt lat="50.026436" lon="4.499861"><time>2026-05-06T21:16:42Z</time></trkpt>
</trkseg>
</trk>
<trk>
<name>ncvcvi34</name>
<cmt>v</cmt>
<desc>Couvin Sentier n°i34 </desc>
<link href="https://chemins.be/couvin/sentier/i34"/><trkseg>
<trkpt lat="50.031344" lon="4.499491"><time>2026-05-06T20:36:42Z</time></trkpt>
<trkpt lat="50.031454" lon="4.499672"><time>2026-05-06T20:46:42Z</time></trkpt>
<trkpt lat="50.032071" lon="4.499861"><time>2026-05-06T20:56:42Z</time></trkpt>
<trkpt lat="50.032783" lon="4.499758"><time>2026-05-06T21:06:42Z</time></trkpt>
<trkpt lat="50.033571" lon="4.499037"><time>2026-05-06T21:16:42Z</time></trkpt>
<trkpt lat="50.033962" lon="4.499079"><time>2026-05-06T21:26:42Z</time></trkpt>
<trkpt lat="50.034051" lon="4.499208"><time>2026-05-06T21:36:42Z</time></trkpt>
</trkseg>
</trk>
<trk>
<name>ncvcvi35</name>
<cmt>v</cmt>
<desc>Couvin Sentier n°i35 </desc>
<link href="https://chemins.be/couvin/sentier/i35"/><trkseg>
<trkpt lat="50.046156" lon="4.504943"><time>2026-05-06T20:36:42Z</time></trkpt>
<trkpt lat="50.046114" lon="4.504479"><time>2026-05-06T20:46:42Z</time></trkpt>
<trkpt lat="50.046062" lon="4.504376"><time>2026-05-06T20:56:42Z</time></trkpt>
<trkpt lat="50.046167" lon="4.504097"><time>2026-05-06T21:06:42Z</time></trkpt>
<trkpt lat="50.046054" lon="4.503655"><time>2026-05-06T21:16:42Z</time></trkpt>
<trkpt lat="50.045869" lon="4.503582"><time>2026-05-06T21:26:42Z</time></trkpt>
<trkpt lat="50.045591" lon="4.503621"><time>2026-05-06T21:36:42Z</time></trkpt>
<trkpt lat="50.045533" lon="4.503462"><time>2026-05-06T21:46:42Z</time></trkpt>
</trkseg>
</trk>
<trk>
<name>ncvcvi36</name>
<cmt>v</cmt>
<desc>Couvin Sentier n°i36 </desc>
<link href="https://chemins.be/couvin/sentier/i36"/><trkseg>
<trkpt lat="50.052521" lon="4.494347"><time>2026-05-06T20:36:42Z</time></trkpt>
<trkpt lat="50.052097" lon="4.495291"><time>2026-05-06T20:46:42Z</time></trkpt>
<trkpt lat="50.051830" lon="4.495450"><time>2026-05-06T20:56:42Z</time></trkpt>
</trkseg>
</trk>
<trk>
<name>ncvcvi37</name>
<cmt>v</cmt>
<desc>Couvin Sentier n°i37 </desc>
<link href="https://chemins.be/couvin/sentier/i37"/><trkseg>
<trkpt lat="50.030255" lon="4.485527"><time>2026-05-06T20:36:42Z</time></trkpt>
<trkpt lat="50.030993" lon="4.484359"><time>2026-05-06T20:46:42Z</time></trkpt>
<trkpt lat="50.031170" lon="4.483364"><time>2026-05-06T20:56:42Z</time></trkpt>
</trkseg>
</trk>
<trk>
<name>ncvcvi38</name>
<cmt>v</cmt>
<desc>Couvin Chemin n°i38 Rue Try Chalons</desc>
<link href="https://chemins.be/couvin/chemin/i38"/><trkseg>
<trkpt lat="50.056299" lon="4.491535"><time>2026-05-06T20:36:42Z</time></trkpt>
<trkpt lat="50.058305" lon="4.493140"><time>2026-05-06T20:46:42Z</time></trkpt>
<trkpt lat="50.058449" lon="4.493252"><time>2026-05-06T20:56:42Z</time></trkpt>
<trkpt lat="50.058766" lon="4.493483"><time>2026-05-06T21:06:42Z</time></trkpt>
</trkseg></trk>
<trk>
<name>ncvcvi38</name>
<cmt>r</cmt>
<desc>Couvin Chemin n°i38 Rue Try Chalons</desc>
<link href="https://chemins.be/couvin/chemin/i38"/><trkseg>
<trkpt lat="50.058766" lon="4.493483"><time>2026-05-06T21:06:42Z</time></trkpt>
<trkpt lat="50.060157" lon="4.494324"><time>2026-05-06T21:16:42Z</time></trkpt>
<trkpt lat="50.061664" lon="4.494687"><time>2026-05-06T21:26:42Z</time></trkpt>
<trkpt lat="50.063193" lon="4.495054"><time>2026-05-06T21:36:42Z</time></trkpt>
<trkpt lat="50.064371" lon="4.495700"><time>2026-05-06T21:46:42Z</time></trkpt>
<trkpt lat="50.066027" lon="4.497173"><time>2026-05-06T21:56:42Z</time></trkpt>
<trkpt lat="50.066324" lon="4.497627"><time>2026-05-06T22:06:42Z</time></trkpt>
<trkpt lat="50.066813" lon="4.498135"><time>2026-05-06T22:16:42Z</time></trkpt>
<trkpt lat="50.067567" lon="4.499354"><time>2026-05-06T22:26:42Z</time></trkpt>
</trkseg>
</trk>
<trk>
<name>ncvcvi39</name>
<cmt>v</cmt>
<desc>Couvin Chemin n°i39 </desc>
<link href="https://chemins.be/couvin/chemin/i39"/><trkseg>
<trkpt lat="50.067642" lon="4.500805"><time>2026-05-06T20:36:42Z</time></trkpt>
<trkpt lat="50.067631" lon="4.500436"><time>2026-05-06T20:46:42Z</time></trkpt>
<trkpt lat="50.067311" lon="4.499680"><time>2026-05-06T20:56:42Z</time></trkpt>
<trkpt lat="50.067515" lon="4.499328"><time>2026-05-06T21:06:42Z</time></trkpt>
</trkseg>
</trk>
<trk>
<name>ncvcvi4</name>
<cmt>v</cmt>
<desc>Couvin Sentier n°i4 </desc>
<link href="https://chemins.be/couvin/sentier/i4"/><trkseg>
<trkpt lat="50.055629" lon="4.496710"><time>2026-05-06T20:36:42Z</time></trkpt>
<trkpt lat="50.055629" lon="4.495900"><time>2026-05-06T20:46:42Z</time></trkpt>
<trkpt lat="50.056907" lon="4.495038"><time>2026-05-06T20:56:42Z</time></trkpt>
<trkpt lat="50.057062" lon="4.493055"><time>2026-05-06T21:06:42Z</time></trkpt>
</trkseg>
</trk>
<trk>
<name>ncvcvi40</name>
<cmt>v</cmt>
<desc>Couvin Chemin n°i40 </desc>
<link href="https://chemins.be/couvin/chemin/i40"/><trkseg>
<trkpt lat="50.064101" lon="4.482914"><time>2026-05-06T20:36:42Z</time></trkpt>
<trkpt lat="50.064283" lon="4.483751"><time>2026-05-06T20:46:42Z</time></trkpt>
<trkpt lat="50.064705" lon="4.484798"><time>2026-05-06T20:56:42Z</time></trkpt>
</trkseg>
</trk>
<trk>
<name>ncvcvi41</name>
<cmt>v</cmt>
<desc>Couvin Chemin n°i41 </desc>
<link href="https://chemins.be/couvin/chemin/i41"/><trkseg>
<trkpt lat="50.018789" lon="4.479194"><time>2026-05-06T20:36:42Z</time></trkpt>
<trkpt lat="50.017722" lon="4.480873"><time>2026-05-06T20:46:42Z</time></trkpt>
<trkpt lat="50.015213" lon="4.483062"><time>2026-05-06T20:56:42Z</time></trkpt>
<trkpt lat="50.013163" lon="4.484793"><time>2026-05-06T21:06:42Z</time></trkpt>
<trkpt lat="50.011104" lon="4.487096"><time>2026-05-06T21:16:42Z</time></trkpt>
<trkpt lat="50.010883" lon="4.488283"><time>2026-05-06T21:26:42Z</time></trkpt>
<trkpt lat="50.011141" lon="4.490701"><time>2026-05-06T21:36:42Z</time></trkpt>
<trkpt lat="50.010681" lon="4.498626"><time>2026-05-06T21:46:42Z</time></trkpt>
<trkpt lat="50.010571" lon="4.499323"><time>2026-05-06T21:56:42Z</time></trkpt>
<trkpt lat="50.010939" lon="4.504679"><time>2026-05-06T22:06:42Z</time></trkpt>
<trkpt lat="50.011003" lon="4.505401"><time>2026-05-06T22:16:42Z</time></trkpt>
<trkpt lat="50.011271" lon="4.506189"><time>2026-05-06T22:26:42Z</time></trkpt>
<trkpt lat="50.012795" lon="4.510066"><time>2026-05-06T22:36:42Z</time></trkpt>
<trkpt lat="50.013071" lon="4.510767"><time>2026-05-06T22:46:42Z</time></trkpt>
<trkpt lat="50.012152" lon="4.515831"><time>2026-05-06T22:56:42Z</time></trkpt>
<trkpt lat="50.013191" lon="4.518996"><time>2026-05-06T23:06:42Z</time></trkpt>
</trkseg>
</trk>
<trk>
<name>ncvcvi42</name>
<cmt>v</cmt>
<desc>Couvin Chemin n°i42 </desc>
<link href="https://chemins.be/couvin/chemin/i42"/><trkseg>
<trkpt lat="50.018439" lon="4.479811"><time>2026-05-06T20:36:42Z</time></trkpt>
<trkpt lat="50.018825" lon="4.480069"><time>2026-05-06T20:46:42Z</time></trkpt>
<trkpt lat="50.019119" lon="4.482729"><time>2026-05-06T20:56:42Z</time></trkpt>
<trkpt lat="50.019179" lon="4.483274"><time>2026-05-06T21:06:42Z</time></trkpt>
<trkpt lat="50.019815" lon="4.489088"><time>2026-05-06T21:16:42Z</time></trkpt>
<trkpt lat="50.020829" lon="4.498370"><time>2026-05-06T21:26:42Z</time></trkpt>
<trkpt lat="50.021252" lon="4.502242"><time>2026-05-06T21:36:42Z</time></trkpt>
</trkseg></trk>
<trk>
<name>ncvcvi42</name>
<cmt>d</cmt>
<desc>Couvin Chemin n°i42 </desc>
<link href="https://chemins.be/couvin/chemin/i42"/><trkseg>
<trkpt lat="50.021252" lon="4.502242"><time>2026-05-06T21:36:42Z</time></trkpt>
<trkpt lat="50.021675" lon="4.506075"><time>2026-05-06T21:46:42Z</time></trkpt>
<trkpt lat="50.022300" lon="4.508994"><time>2026-05-06T21:56:42Z</time></trkpt>
</trkseg>
</trk>
<trk>
<name>ncvcvi420</name>
<cmt>r</cmt>
<desc>Couvin Chemin n°i420 </desc>
<link href="https://chemins.be/couvin/chemin/i420"/><trkseg>
<trkpt lat="50.066998" lon="4.505262"><time>2026-05-06T20:36:42Z</time></trkpt>
<trkpt lat="50.065598" lon="4.504922"><time>2026-05-06T20:46:42Z</time></trkpt>
<trkpt lat="50.063037" lon="4.505221"><time>2026-05-06T20:56:42Z</time></trkpt>
<trkpt lat="50.058418" lon="4.505907"><time>2026-05-06T21:06:42Z</time></trkpt>
<trkpt lat="50.054137" lon="4.508442"><time>2026-05-06T21:16:42Z</time></trkpt>
<trkpt lat="50.052617" lon="4.510153"><time>2026-05-06T21:26:42Z</time></trkpt>
<trkpt lat="50.050467" lon="4.511333"><time>2026-05-06T21:36:42Z</time></trkpt>
<trkpt lat="50.049847" lon="4.511793"><time>2026-05-06T21:46:42Z</time></trkpt>
<trkpt lat="50.045967" lon="4.512133"><time>2026-05-06T21:56:42Z</time></trkpt>
<trkpt lat="50.043097" lon="4.510743"><time>2026-05-06T22:06:42Z</time></trkpt>
<trkpt lat="50.041187" lon="4.509203"><time>2026-05-06T22:16:42Z</time></trkpt>
<trkpt lat="50.039807" lon="4.508083"><time>2026-05-06T22:26:42Z</time></trkpt>
<trkpt lat="50.038677" lon="4.507443"><time>2026-05-06T22:36:42Z</time></trkpt>
<trkpt lat="50.035746" lon="4.507420"><time>2026-05-06T22:46:42Z</time></trkpt>
<trkpt lat="50.034867" lon="4.507453"><time>2026-05-06T22:56:42Z</time></trkpt>
<trkpt lat="50.030407" lon="4.510093"><time>2026-05-06T23:06:42Z</time></trkpt>
</trkseg>
</trk>
<trk>
<name>ncvcvi43</name>
<cmt>v</cmt>
<desc>Couvin Chemin n°i43 </desc>
<link href="https://chemins.be/couvin/chemin/i43"/><trkseg>
<trkpt lat="50.021316" lon="4.502174"><time>2026-05-06T20:36:42Z</time></trkpt>
<trkpt lat="50.013181" lon="4.508725"><time>2026-05-06T20:46:42Z</time></trkpt>
<trkpt lat="50.012804" lon="4.510099"><time>2026-05-06T20:56:42Z</time></trkpt>
<trkpt lat="50.008769" lon="4.512273"><time>2026-05-06T21:06:42Z</time></trkpt>
<trkpt lat="50.004503" lon="4.513289"><time>2026-05-06T21:16:42Z</time></trkpt>
</trkseg>
</trk>
<trk>
<name>ncvcvi44</name>
<cmt>v</cmt>
<desc>Couvin Chemin n°i44 </desc>
<link href="https://chemins.be/couvin/chemin/i44"/><trkseg>
<trkpt lat="50.022447" lon="4.494263"><time>2026-05-06T20:36:42Z</time></trkpt>
<trkpt lat="50.021583" lon="4.496466"><time>2026-05-06T20:46:42Z</time></trkpt>
<trkpt lat="50.011407" lon="4.499041"><time>2026-05-06T20:56:42Z</time></trkpt>
<trkpt lat="50.010561" lon="4.499241"><time>2026-05-06T21:06:42Z</time></trkpt>
<trkpt lat="50.008465" lon="4.499770"><time>2026-05-06T21:16:42Z</time></trkpt>
<trkpt lat="50.004448" lon="4.498841"><time>2026-05-06T21:26:42Z</time></trkpt>
</trkseg>
</trk>
<trk>
<name>ncvcvi45</name>
<cmt>v</cmt>
<desc>Couvin Chemin n°i45 </desc>
<link href="https://chemins.be/couvin/chemin/i45"/><trkseg>
<trkpt lat="50.025661" lon="4.482682"><time>2026-05-06T20:36:43Z</time></trkpt>
<trkpt lat="50.025293" lon="4.483670"><time>2026-05-06T20:46:43Z</time></trkpt>
<trkpt lat="50.023555" lon="4.486895"><time>2026-05-06T20:56:43Z</time></trkpt>
<trkpt lat="50.023238" lon="4.488196"><time>2026-05-06T21:06:43Z</time></trkpt>
<trkpt lat="50.021968" lon="4.490537"><time>2026-05-06T21:16:43Z</time></trkpt>
<trkpt lat="50.020865" lon="4.494048"><time>2026-05-06T21:26:43Z</time></trkpt>
</trkseg>
</trk>
<trk>
<name>ncvcvi46</name>
<cmt>v</cmt>
<desc>Couvin Sentier n°i46 </desc>
<link href="https://chemins.be/couvin/sentier/i46"/><trkseg>
<trkpt lat="50.057060" lon="4.496506"><time>2026-05-06T20:36:43Z</time></trkpt>
<trkpt lat="50.057138" lon="4.495938"><time>2026-05-06T20:46:43Z</time></trkpt>
<trkpt lat="50.057019" lon="4.495548"><time>2026-05-06T20:56:43Z</time></trkpt>
<trkpt lat="50.056918" lon="4.495026"><time>2026-05-06T21:06:43Z</time></trkpt>
</trkseg>
</trk>
<trk>
<name>ncvcvi47</name>
<cmt>v</cmt>
<desc>Couvin Chemin n°i47 </desc>
<link href="https://chemins.be/couvin/chemin/i47"/><trkseg>
<trkpt lat="50.038680" lon="4.482592"><time>2026-05-06T20:36:43Z</time></trkpt>
<trkpt lat="50.037109" lon="4.480732"><time>2026-05-06T20:46:43Z</time></trkpt>
<trkpt lat="50.036976" lon="4.479509"><time>2026-05-06T20:56:43Z</time></trkpt>
<trkpt lat="50.036590" lon="4.478286"><time>2026-05-06T21:06:43Z</time></trkpt>
<trkpt lat="50.035708" lon="4.477435"><time>2026-05-06T21:16:43Z</time></trkpt>
<trkpt lat="50.034637" lon="4.477850"><time>2026-05-06T21:26:43Z</time></trkpt>
<trkpt lat="50.033843" lon="4.478300"><time>2026-05-06T21:36:43Z</time></trkpt>
<trkpt lat="50.032731" lon="4.479666"><time>2026-05-06T21:46:43Z</time></trkpt>
<trkpt lat="50.031720" lon="4.480003"><time>2026-05-06T21:56:43Z</time></trkpt>
<trkpt lat="50.031196" lon="4.480131"><time>2026-05-06T22:06:43Z</time></trkpt>
</trkseg>
</trk>
<trk>
<name>ncvcvi48</name>
<cmt>v</cmt>
<desc>Couvin Chemin n°i48 </desc>
<link href="https://chemins.be/couvin/chemin/i48"/><trkseg>
<trkpt lat="50.053411" lon="4.506490"><time>2026-05-06T20:36:43Z</time></trkpt>
<trkpt lat="50.051762" lon="4.507078"><time>2026-05-06T20:46:43Z</time></trkpt>
</trkseg>
</trk>
<trk>
<name>ncvcvi5</name>
<cmt>r</cmt>
<desc>Couvin Chemin n°i5 Chemin du Try Châlons</desc>
<link href="https://chemins.be/couvin/chemin/i5"/><trkseg>
<trkpt lat="50.060560" lon="4.492394"><time>2026-05-06T20:36:43Z</time></trkpt>
<trkpt lat="50.061226" lon="4.492270"><time>2026-05-06T20:46:43Z</time></trkpt>
<trkpt lat="50.061639" lon="4.492271"><time>2026-05-06T20:56:43Z</time></trkpt>
<trkpt lat="50.061675" lon="4.492160"><time>2026-05-06T21:06:43Z</time></trkpt>
<trkpt lat="50.061541" lon="4.491628"><time>2026-05-06T21:16:43Z</time></trkpt>
</trkseg>
</trk>
<trk>
<name>ncvcvi6</name>
<cmt>q</cmt>
<desc>Couvin Chemin n°i6 </desc>
<link href="https://chemins.be/couvin/chemin/i6"/><trkseg>
<trkpt lat="50.061178" lon="4.494588"><time>2026-05-06T20:36:43Z</time></trkpt>
<trkpt lat="50.061314" lon="4.493527"><time>2026-05-06T20:46:43Z</time></trkpt>
<trkpt lat="50.060515" lon="4.492687"><time>2026-05-06T20:56:43Z</time></trkpt>
</trkseg>
</trk>
<trk>
<name>ncvcvi7</name>
<cmt>v</cmt>
<desc>Couvin Sentier n°i7 </desc>
<link href="https://chemins.be/couvin/sentier/i7"/><trkseg>
<trkpt lat="50.042308" lon="4.501449"><time>2026-05-06T20:36:43Z</time></trkpt>
<trkpt lat="50.042451" lon="4.502594"><time>2026-05-06T20:46:43Z</time></trkpt>
<trkpt lat="50.042504" lon="4.502622"><time>2026-05-06T20:56:43Z</time></trkpt>
<trkpt lat="50.042638" lon="4.503348"><time>2026-05-06T21:06:43Z</time></trkpt>
</trkseg>
</trk>
<trk>
<name>ncvcvi8</name>
<cmt>v</cmt>
<desc>Couvin Sentier n°i8 </desc>
<link href="https://chemins.be/couvin/sentier/i8"/><trkseg>
<trkpt lat="50.042971" lon="4.503266"><time>2026-05-06T20:36:43Z</time></trkpt>
<trkpt lat="50.043087" lon="4.503992"><time>2026-05-06T20:46:43Z</time></trkpt>
</trkseg>
</trk>
<trk>
<name>ncvcvi9</name>
<cmt>v</cmt>
<desc>Couvin Chemin n°i9 </desc>
<link href="https://chemins.be/couvin/chemin/i9"/><trkseg>
<trkpt lat="50.051358" lon="4.497339"><time>2026-05-06T20:36:43Z</time></trkpt>
<trkpt lat="50.051464" lon="4.497066"><time>2026-05-06T20:46:43Z</time></trkpt>
<trkpt lat="50.051673" lon="4.496862"><time>2026-05-06T20:56:43Z</time></trkpt>
</trkseg>
</trk>
<trk>
<name>ncvcvL134</name>
<cmt>t</cmt>
<desc>Couvin Chemin n°L134 </desc>
<link href="https://chemins.be/couvin/chemin/L134"/><trkseg>
<trkpt lat="50.067332" lon="4.499074"><time>2026-05-06T20:36:43Z</time></trkpt>
<trkpt lat="50.064369" lon="4.495533"><time>2026-05-06T20:46:43Z</time></trkpt>
<trkpt lat="50.060190" lon="4.494209"><time>2026-05-06T20:56:43Z</time></trkpt>
<trkpt lat="50.056407" lon="4.491559"><time>2026-05-06T21:06:43Z</time></trkpt>
</trkseg>
</trk>
<trk>
<name>ncvcvLv517</name>
<cmt>v</cmt>
<desc>Couvin Chemin n°Lv517 Rue de Pernelle</desc>
<link href="https://chemins.be/couvin/chemin/Lv517"/><trkseg>
<trkpt lat="50.035234" lon="4.497991"><time>2026-05-06T20:36:43Z</time></trkpt>
<trkpt lat="50.033699" lon="4.498284"><time>2026-05-06T20:46:43Z</time></trkpt>
<trkpt lat="50.032852" lon="4.499245"><time>2026-05-06T20:56:43Z</time></trkpt>
<trkpt lat="50.031379" lon="4.499545"><time>2026-05-06T21:06:43Z</time></trkpt>
<trkpt lat="50.030083" lon="4.499726"><time>2026-05-06T21:16:43Z</time></trkpt>
<trkpt lat="50.028049" lon="4.501256"><time>2026-05-06T21:26:43Z</time></trkpt>
<trkpt lat="50.026938" lon="4.505411"><time>2026-05-06T21:36:43Z</time></trkpt>
<trkpt lat="50.025946" lon="4.507935"><time>2026-05-06T21:46:43Z</time></trkpt>
<trkpt lat="50.023147" lon="4.510620"><time>2026-05-06T21:56:43Z</time></trkpt>
<trkpt lat="50.019726" lon="4.514530"><time>2026-05-06T22:06:43Z</time></trkpt>
<trkpt lat="50.019262" lon="4.515908"><time>2026-05-06T22:16:43Z</time></trkpt>
<trkpt lat="50.017987" lon="4.517218"><time>2026-05-06T22:26:43Z</time></trkpt>
<trkpt lat="50.015298" lon="4.517684"><time>2026-05-06T22:36:43Z</time></trkpt>
<trkpt lat="50.014478" lon="4.519955"><time>2026-05-06T22:46:43Z</time></trkpt>
<trkpt lat="50.012759" lon="4.521600"><time>2026-05-06T22:56:43Z</time></trkpt>
<trkpt lat="50.011205" lon="4.521371"><time>2026-05-06T23:06:43Z</time></trkpt>
</trkseg></trk>
<trk>
<name>ncvcvLv517</name>
<cmt>q</cmt>
<desc>Couvin Chemin n°Lv517 Rue de Pernelle</desc>
<link href="https://chemins.be/couvin/chemin/Lv517"/><trkseg>
<trkpt lat="50.011205" lon="4.521371"><time>2026-05-06T23:06:43Z</time></trkpt>
<trkpt lat="50.005500" lon="4.520028"><time>2026-05-06T23:16:43Z</time></trkpt>
<trkpt lat="50.004935" lon="4.519520"><time>2026-05-06T23:26:43Z</time></trkpt>
</trkseg>
</trk>
<trk>
<name>ncvcvp1</name>
<cmt>v</cmt>
<desc>Couvin Chemin particulier n°p1 </desc>
<link href="https://chemins.be/couvin/chemin/p1"/><trkseg>
<trkpt lat="50.042013" lon="4.514543"><time>2026-05-06T20:36:43Z</time></trkpt>
<trkpt lat="50.040723" lon="4.510937"><time>2026-05-06T20:46:43Z</time></trkpt>
<trkpt lat="50.039934" lon="4.509399"><time>2026-05-06T20:56:43Z</time></trkpt>
</trkseg>
</trk>
</gpx>